Observation data for Vigo Park on 12/13/2019      Previous  Date       Current Mesonet Observations  Soil Data  Daily Summary Page  Observations in Plain Language
KVP1 130600Z 15001KT 03/M03 A2998 RMK A01 T00331033  RH  062%=      5-min Rain = 0
KVP1 130601Z 16001KT 03/M03 A2998 RMK A01 T00331033  RH  062%=      5-min Rain = 0
KVP1 130602Z 17001KT 03/M03 A2998 RMK A01 T00321033  RH  062%=      5-min Rain = 0
KVP1 130603Z 18002KT 03/M03 A2998 RMK A01 T00321033  RH  062%=      5-min Rain = 0
KVP1 130604Z 19002KT 03/M03 A2998 RMK A01 T00321033  RH  062%=      5-min Rain = 0
KVP1 130605Z 19003KT 03/M03 A2998 RMK A01 T00331033  RH  062%=      5-min Rain = 0
KVP1 130606Z 19003KT 03/M03 A2997 RMK A01 T00331033  RH  062%=      5-min Rain = 0
KVP1 130607Z 19003KT 03/M03 A2997 RMK A01 T00331033  RH  062%=      5-min Rain = 0
KVP1 130608Z 19003KT 03/M03 A2997 RMK A01 T00331033  RH  062%=      5-min Rain = 0
KVP1 130609Z 19003KT 03/M03 A2997 RMK A01 T00321033  RH  063%=      5-min Rain = 0
KVP1 130610Z 20003KT 03/M03 A2997 RMK A01 T00301033  RH  063%=      5-min Rain = 0
KVP1 130611Z 20003KT 03/M04 A2997 RMK A01 T00271035  RH  064%=      5-min Rain = 0
KVP1 130612Z 21003KT 02/M04 A2997 RMK A01 T00231037  RH  064%=      5-min Rain = 0
KVP1 130613Z 21003KT 02/M04 A2997 RMK A01 T00171041  RH  065%=      5-min Rain = 0
KVP1 130614Z 21003KT 01/M04 A2997 RMK A01 T00111044  RH  066%=      5-min Rain = 0
KVP1 130615Z 22002KT 01/M05 A2997 RMK A01 T00061046  RH  068%=      5-min Rain = 0
KVP1 130616Z 22002KT 00/M05 A2997 RMK A01 T00011048  RH  070%=      5-min Rain = 0
KVP1 130617Z 23002KT M00/M05 A2997 RMK A01 T10031048  RH  072%=      5-min Rain = 0
KVP1 130618Z 23002KT M01/M05 A2997 RMK A01 T10051047  RH  073%=      5-min Rain = 0
KVP1 130619Z 23003KT M01/M05 A2997 RMK A01 T10061045  RH  075%=      5-min Rain = 0
KVP1 130620Z 23003KT M01/M05 A2997 RMK A01 T10061045  RH  075%=      5-min Rain = 0
KVP1 130621Z 23003KT M01/M05 A2997 RMK A01 T10051045  RH  075%=      5-min Rain = 0
KVP1 130622Z 23003KT M01/M05 A2997 RMK A01 T10061045  RH  075%=      5-min Rain = 0
KVP1 130623Z 23003KT M01/M05 A2997 RMK A01 T10071045  RH  075%=      5-min Rain = 0
KVP1 130624Z 23003KT M01/M05 A2997 RMK A01 T10071045  RH  075%=      5-min Rain = 0
KVP1 130625Z 23003KT M01/M05 A2997 RMK A01 T10081045  RH  075%=      5-min Rain = 0
KVP1 130626Z 23003KT M01/M05 A2997 RMK A01 T10081045  RH  076%=      5-min Rain = 0
KVP1 130627Z 24003KT M01/M04 A2997 RMK A01 T10071044  RH  076%=      5-min Rain = 0
KVP1 130628Z 24003KT M01/M04 A2997 RMK A01 T10061043  RH  076%=      5-min Rain = 0
KVP1 130629Z 24003KT M00/M04 A2997 RMK A01 T10041040  RH  077%=      5-min Rain = 0
KVP1 130630Z 24003KT M00/M04 A2997 RMK A01 T10021039  RH  076%=      5-min Rain = 0
KVP1 130631Z 24003KT 00/M04 A2997 RMK A01 T00011035  RH  076%=      5-min Rain = 0
KVP1 130632Z 24003KT 00/M04 A2997 RMK A01 T00031035  RH  075%=      5-min Rain = 0
KVP1 130633Z 23003KT 00/M04 A2997 RMK A01 T00041037  RH  074%=      5-min Rain = 0
KVP1 130634Z 23003KT 00/M04 A2997 RMK A01 T00041039  RH  073%=      5-min Rain = 0
KVP1 130635Z 23003KT 00/M04 A2997 RMK A01 T00041039  RH  073%=      5-min Rain = 0
KVP1 130636Z 23003KT 00/M04 A2997 RMK A01 T00031039  RH  073%=      5-min Rain = 0
KVP1 130637Z 24003KT 00/M04 A2996 RMK A01 T00031039  RH  073%=      5-min Rain = 0
KVP1 130638Z 24003KT 00/M04 A2997 RMK A01 T00021040  RH  073%=      5-min Rain = 0
KVP1 130639Z 25003KT 00/M04 A2997 RMK A01 T00011040  RH  074%=      5-min Rain = 0
KVP1 130640Z 25003KT 00/04 A2997 RMK A01 T00000-41  RH  074%=      5-min Rain = 0
KVP1 130641Z 25003KT 00/04 A2996 RMK A01 T00-00-41  RH  074%=      5-min Rain = 0
KVP1 130642Z 25003KT 00/04 A2996 RMK A01 T00-00-41  RH  074%=      5-min Rain = 0
KVP1 130643Z 25003KT 00/04 A2996 RMK A01 T00-00-41  RH  074%=      5-min Rain = 0
KVP1 130644Z 25003KT M00/M04 A2996 RMK A01 T10011042  RH  074%=      5-min Rain = 0
KVP1 130645Z 25004KT M00/M04 A2996 RMK A01 T10031044  RH  074%=      5-min Rain = 0
KVP1 130646Z 26004KT M01/M05 A2996 RMK A01 T10051045  RH  074%=      5-min Rain = 0
KVP1 130647Z 26004KT M01/M04 A2996 RMK A01 T10061044  RH  075%=      5-min Rain = 0
KVP1 130648Z 26004KT M01/M04 A2996 RMK A01 T10071044  RH  076%=      5-min Rain = 0
KVP1 130649Z 26004KT M01/M04 A2996 RMK A01 T10071043  RH  076%=      5-min Rain = 0
KVP1 130650Z 27005KT M01/M04 A2997 RMK A01 T10071044  RH  076%=      5-min Rain = 0
KVP1 130651Z 27005KT M01/M04 A2997 RMK A01 T10081044  RH  076%=      5-min Rain = 0
KVP1 130652Z 28005KT M01/M05 A2997 RMK A01 T10091045  RH  077%=      5-min Rain = 0
KVP1 130653Z 28005KT M01/M05 A2997 RMK A01 T10111046  RH  077%=      5-min Rain = 0
KVP1 130654Z 28005KT M01/M05 A2997 RMK A01 T10121045  RH  078%=      5-min Rain = 0
KVP1 130655Z 28005KT M01/M05 A2997 RMK A01 T10121045  RH  078%=      5-min Rain = 0
KVP1 130656Z 28005KT M01/M05 A2997 RMK A01 T10141046  RH  079%=      5-min Rain = 0
KVP1 130657Z 28005KT M01/M04 A2997 RMK A01 T10141044  RH  080%=      5-min Rain = 0
KVP1 130658Z 28005KT M01/M04 A2997 RMK A01 T10131042  RH  081%=      5-min Rain = 0
KVP1 130659Z 28006KT M01/M04 A2997 RMK A01 T10121042  RH  080%=      5-min Rain = 0
KVP1 130700Z 28005KT M01/M04 A2997 RMK A01 T10121043  RH  080%=      5-min Rain = 0
KVP1 130701Z 27005KT M01/M04 A2997 RMK A01 T10131043  RH  080%=      5-min Rain = 0
KVP1 130702Z 27005KT M01/M04 A2997 RMK A01 T10131043  RH  080%=      5-min Rain = 0
KVP1 130703Z 27005KT M01/M04 A2996 RMK A01 T10131042  RH  080%=      5-min Rain = 0
KVP1 130704Z 27005KT M01/M04 A2996 RMK A01 T10131042  RH  081%=      5-min Rain = 0
KVP1 130705Z 27005KT M01/M04 A2996 RMK A01 T10121042  RH  081%=      5-min Rain = 0
KVP1 130706Z 27005KT M01/M04 A2996 RMK A01 T10121042  RH  080%=      5-min Rain = 0
KVP1 130707Z 27005KT M01/M04 A2996 RMK A01 T10121042  RH  080%=      5-min Rain = 0
KVP1 130708Z 27006KT M01/M04 A2997 RMK A01 T10111042  RH  080%=      5-min Rain = 0
KVP1 130709Z 28007KT M01/M04 A2997 RMK A01 T10111042  RH  080%=      5-min Rain = 0
KVP1 130710Z 28007KT M01/M04 A2997 RMK A01 T10111042  RH  079%=      5-min Rain = 0
KVP1 130711Z 28007KT M01/M04 A2997 RMK A01 T10111042  RH  079%=      5-min Rain = 0
KVP1 130712Z 28008KT M01/M04 A2997 RMK A01 T10111043  RH  079%=      5-min Rain = 0
KVP1 130713Z 28008KT M01/M04 A2997 RMK A01 T10121044  RH  079%=      5-min Rain = 0
KVP1 130714Z 28007KT M01/M04 A2997 RMK A01 T10121044  RH  079%=      5-min Rain = 0
KVP1 130715Z 28007KT M01/M04 A2997 RMK A01 T10131044  RH  079%=      5-min Rain = 0
KVP1 130716Z 27007KT M01/M04 A2996 RMK A01 T10141044  RH  080%=      5-min Rain = 0
KVP1 130717Z 27007KT M01/M04 A2996 RMK A01 T10141043  RH  080%=      5-min Rain = 0
KVP1 130718Z 27007KT M01/M04 A2996 RMK A01 T10141043  RH  081%=      5-min Rain = 0
KVP1 130719Z 28007KT M01/M04 A2996 RMK A01 T10141042  RH  081%=      5-min Rain = 0
KVP1 130720Z 28006KT M01/M04 A2996 RMK A01 T10141042  RH  081%=      5-min Rain = 0
KVP1 130721Z 28006KT M01/M04 A2996 RMK A01 T10131042  RH  081%=      5-min Rain = 0
KVP1 130722Z 28006KT M01/M04 A2996 RMK A01 T10121041  RH  081%=      5-min Rain = 0
KVP1 130723Z 28006KT M01/M04 A2996 RMK A01 T10111040  RH  081%=      5-min Rain = 0
KVP1 130724Z 28006KT M01/M04 A2996 RMK A01 T10101041  RH  080%=      5-min Rain = 0
KVP1 130725Z 28006KT M01/M04 A2996 RMK A01 T10101041  RH  079%=      5-min Rain = 0
KVP1 130726Z 28006KT M01/M04 A2996 RMK A01 T10091041  RH  079%=      5-min Rain = 0
KVP1 130727Z 28006KT M01/M04 A2996 RMK A01 T10091040  RH  079%=      5-min Rain = 0
KVP1 130728Z 28005KT M01/M04 A2996 RMK A01 T10091040  RH  079%=      5-min Rain = 0
KVP1 130729Z 28005KT M01/M04 A2996 RMK A01 T10081041  RH  079%=      5-min Rain = 0
KVP1 130730Z 28005KT M01/M04 A2996 RMK A01 T10081040  RH  079%=      5-min Rain = 0
KVP1 130731Z 28005KT M01/M04 A2996 RMK A01 T10071039  RH  079%=      5-min Rain = 0
KVP1 130732Z 28005KT M01/M04 A2996 RMK A01 T10071039  RH  079%=      5-min Rain = 0
KVP1 130733Z 27005KT M01/M04 A2996 RMK A01 T10061039  RH  078%=      5-min Rain = 0
KVP1 130734Z 27005KT M01/M04 A2996 RMK A01 T10061039  RH  078%=      5-min Rain = 0
KVP1 130735Z 28005KT M01/M04 A2995 RMK A01 T10061040  RH  078%=      5-min Rain = 0
KVP1 130736Z 28005KT M01/M04 A2995 RMK A01 T10051039  RH  078%=      5-min Rain = 0
KVP1 130737Z 28005KT M01/M04 A2995 RMK A01 T10051039  RH  078%=      5-min Rain = 0
KVP1 130738Z 28005KT M01/M04 A2995 RMK A01 T10051039  RH  078%=      5-min Rain = 0
KVP1 130739Z 28005KT M01/M04 A2995 RMK A01 T10051038  RH  078%=      5-min Rain = 0
KVP1 130740Z 28005KT M00/M04 A2995 RMK A01 T10041037  RH  078%=      5-min Rain = 0
KVP1 130741Z 28005KT M00/M04 A2995 RMK A01 T10031037  RH  078%=      5-min Rain = 0
KVP1 130742Z 28005KT M00/M04 A2995 RMK A01 T10021037  RH  077%=      5-min Rain = 0
KVP1 130743Z 28005KT M00/M04 A2995 RMK A01 T10011037  RH  077%=      5-min Rain = 0
KVP1 130744Z 28005KT 00/04 A2995 RMK A01 T00000-37  RH  076%=      5-min Rain = 0
KVP1 130745Z 28005KT 00/M04 A2995 RMK A01 T00011037  RH  076%=      5-min Rain = 0
KVP1 130746Z 28004KT 00/M04 A2995 RMK A01 T00011037  RH  076%=      5-min Rain = 0
KVP1 130747Z 28004KT 00/M04 A2994 RMK A01 T00011037  RH  075%=      5-min Rain = 0
KVP1 130748Z 28004KT 00/M04 A2994 RMK A01 T00021037  RH  075%=      5-min Rain = 0
KVP1 130749Z 27004KT 00/M04 A2994 RMK A01 T00021037  RH  075%=      5-min Rain = 0
KVP1 130750Z 27004KT 00/M04 A2994 RMK A01 T00031036  RH  075%=      5-min Rain = 0
KVP1 130751Z 27004KT 00/M04 A2994 RMK A01 T00031037  RH  075%=      5-min Rain = 0
KVP1 130752Z 27004KT 00/M04 A2995 RMK A01 T00031037  RH  075%=      5-min Rain = 0
KVP1 130753Z 27005KT 00/M04 A2995 RMK A01 T00031037  RH  075%=      5-min Rain = 0
KVP1 130754Z 27005KT 00/M04 A2995 RMK A01 T00031037  RH  075%=      5-min Rain = 0
KVP1 130755Z 28005KT 00/M04 A2995 RMK A01 T00021037  RH  075%=      5-min Rain = 0
KVP1 130756Z 28005KT 00/M04 A2995 RMK A01 T00021038  RH  075%=      5-min Rain = 0
KVP1 130757Z 27005KT 00/M04 A2994 RMK A01 T00011038  RH  075%=      5-min Rain = 0
KVP1 130758Z 27005KT 00/04 A2994 RMK A01 T00000-39  RH  075%=      5-min Rain = 0
KVP1 130759Z 27005KT M00/M04 A2994 RMK A01 T10011039  RH  076%=      5-min Rain = 0
KVP1 130800Z 27005KT M00/M04 A2994 RMK A01 T10021039  RH  076%=      5-min Rain = 0
KVP1 130801Z 27005KT M00/M04 A2994 RMK A01 T10041040  RH  077%=      5-min Rain = 0
KVP1 130802Z 28005KT M01/M04 A2994 RMK A01 T10051040  RH  077%=      5-min Rain = 0
KVP1 130803Z 28005KT M01/M04 A2994 RMK A01 T10061040  RH  077%=      5-min Rain = 0
KVP1 130804Z 28004KT M01/M04 A2994 RMK A01 T10061040  RH  078%=      5-min Rain = 0
KVP1 130805Z 28004KT M01/M04 A2994 RMK A01 T10061039  RH  078%=      5-min Rain = 0
KVP1 130806Z 28004KT M01/M04 A2994 RMK A01 T10061039  RH  078%=      5-min Rain = 0
KVP1 130807Z 28004KT M01/M04 A2994 RMK A01 T10061039  RH  079%=      5-min Rain = 0
KVP1 130808Z 28004KT M01/M04 A2994 RMK A01 T10061039  RH  079%=      5-min Rain = 0
KVP1 130809Z 28004KT M01/M04 A2994 RMK A01 T10071039  RH  079%=      5-min Rain = 0
KVP1 130810Z 28004KT M01/M04 A2994 RMK A01 T10061038  RH  079%=      5-min Rain = 0
KVP1 130811Z 28004KT M01/M04 A2994 RMK A01 T10051038  RH  079%=      5-min Rain = 0
KVP1 130812Z 28004KT M01/M04 A2994 RMK A01 T10051038  RH  078%=      5-min Rain = 0
KVP1 130813Z 28004KT M01/M04 A2994 RMK A01 T10051039  RH  078%=      5-min Rain = 0
KVP1 130814Z 28004KT M01/M04 A2994 RMK A01 T10071041  RH  078%=      5-min Rain = 0
KVP1 130815Z 28004KT M01/M04 A2994 RMK A01 T10081040  RH  079%=      5-min Rain = 0
KVP1 130816Z 28004KT M01/M04 A2994 RMK A01 T10081039  RH  079%=      5-min Rain = 0
KVP1 130817Z 29004KT M01/M04 A2994 RMK A01 T10081039  RH  079%=      5-min Rain = 0
KVP1 130818Z 30004KT M01/M04 A2994 RMK A01 T10081040  RH  079%=      5-min Rain = 0
KVP1 130819Z 30004KT M01/M04 A2994 RMK A01 T10091041  RH  079%=      5-min Rain = 0
KVP1 130820Z 30004KT M01/M04 A2994 RMK A01 T10101042  RH  079%=      5-min Rain = 0
KVP1 130821Z 29004KT M01/M04 A2994 RMK A01 T10111043  RH  079%=      5-min Rain = 0
KVP1 130822Z 29004KT M01/M04 A2994 RMK A01 T10121043  RH  080%=      5-min Rain = 0
KVP1 130823Z 29004KT M01/M04 A2994 RMK A01 T10131043  RH  080%=      5-min Rain = 0
KVP1 130824Z 29004KT M01/M04 A2994 RMK A01 T10141043  RH  080%=      5-min Rain = 0
KVP1 130825Z 29004KT M02/M04 A2994 RMK A01 T10151044  RH  081%=      5-min Rain = 0
KVP1 130826Z 29004KT M02/M05 A2994 RMK A01 T10161045  RH  081%=      5-min Rain = 0
KVP1 130827Z 30005KT M02/M05 A2994 RMK A01 T10171045  RH  081%=      5-min Rain = 0
KVP1 130828Z 30005KT M02/M05 A2994 RMK A01 T10181046  RH  081%=      5-min Rain = 0
KVP1 130829Z 30005KT M02/M05 A2994 RMK A01 T10191047  RH  081%=      5-min Rain = 0
KVP1 130830Z 30005KT M02/M05 A2994 RMK A01 T10201047  RH  082%=      5-min Rain = 0
KVP1 130831Z 30005KT M02/M05 A2994 RMK A01 T10221048  RH  082%=      5-min Rain = 0
KVP1 130832Z 30005KT M02/M05 A2994 RMK A01 T10231048  RH  083%=      5-min Rain = 0
KVP1 130833Z 30005KT M02/M05 A2994 RMK A01 T10241049  RH  083%=      5-min Rain = 0
KVP1 130834Z 30005KT M03/M05 A2994 RMK A01 T10261050  RH  084%=      5-min Rain = 0
KVP1 130835Z 30006KT M03/M05 A2994 RMK A01 T10271050  RH  084%=      5-min Rain = 0
KVP1 130836Z 29006KT M03/M05 A2994 RMK A01 T10271049  RH  085%=      5-min Rain = 0
KVP1 130837Z 29006KT M03/M05 A2994 RMK A01 T10281050  RH  085%=      5-min Rain = 0
KVP1 130838Z 29006KT M03/M05 A2994 RMK A01 T10281050  RH  085%=      5-min Rain = 0
KVP1 130839Z 28007KT M03/M05 A2994 RMK A01 T10281049  RH  085%=      5-min Rain = 0
KVP1 130840Z 28007KT M03/M05 A2994 RMK A01 T10271048  RH  085%=      5-min Rain = 0
KVP1 130841Z 28006KT M03/M05 A2994 RMK A01 T10271049  RH  085%=      5-min Rain = 0
KVP1 130842Z 28006KT M03/M05 A2994 RMK A01 T10271049  RH  085%=      5-min Rain = 0
KVP1 130843Z 28006KT M03/M05 A2994 RMK A01 T10271050  RH  084%=      5-min Rain = 0
KVP1 130844Z 28006KT M03/M05 A2994 RMK A01 T10271050  RH  085%=      5-min Rain = 0
KVP1 130845Z 28006KT M03/M05 A2994 RMK A01 T10271048  RH  085%=      5-min Rain = 0
KVP1 130846Z 28006KT M03/M05 A2994 RMK A01 T10251046  RH  086%=      5-min Rain = 0
KVP1 130847Z 28006KT M02/M04 A2994 RMK A01 T10241044  RH  086%=      5-min Rain = 0
KVP1 130848Z 28005KT M02/M04 A2994 RMK A01 T10221044  RH  085%=      5-min Rain = 0
KVP1 130849Z 28005KT M02/M04 A2994 RMK A01 T10211044  RH  084%=      5-min Rain = 0
KVP1 130850Z 28006KT M02/M05 A2994 RMK A01 T10211045  RH  084%=      5-min Rain = 0
KVP1 130851Z 28006KT M02/M05 A2994 RMK A01 T10211045  RH  084%=      5-min Rain = 0
KVP1 130852Z 28006KT M02/M05 A2995 RMK A01 T10211045  RH  083%=      5-min Rain = 0
KVP1 130853Z 28006KT M02/M05 A2995 RMK A01 T10211046  RH  083%=      5-min Rain = 0
KVP1 130854Z 28006KT M02/M05 A2995 RMK A01 T10221047  RH  083%=      5-min Rain = 0
KVP1 130855Z 28006KT M02/M05 A2995 RMK A01 T10231048  RH  083%=      5-min Rain = 0
KVP1 130856Z 28006KT M02/M05 A2995 RMK A01 T10231048  RH  083%=      5-min Rain = 0
KVP1 130857Z 28006KT M02/M05 A2995 RMK A01 T10241048  RH  083%=      5-min Rain = 0
KVP1 130858Z 28006KT M03/M05 A2995 RMK A01 T10251049  RH  084%=      5-min Rain = 0
KVP1 130859Z 28006KT M03/M05 A2995 RMK A01 T10251048  RH  084%=      5-min Rain = 0
KVP1 130900Z 28006KT M03/M05 A2995 RMK A01 T10251048  RH  084%=      5-min Rain = 0
KVP1 130901Z 28006KT M03/M05 A2994 RMK A01 T10251048  RH  084%=      5-min Rain = 0
KVP1 130902Z 28006KT M02/M05 A2994 RMK A01 T10241047  RH  084%=      5-min Rain = 0
KVP1 130903Z 28006KT M02/M05 A2994 RMK A01 T10241047  RH  084%=      5-min Rain = 0
KVP1 130904Z 28006KT M02/M05 A2994 RMK A01 T10231046  RH  084%=      5-min Rain = 0
KVP1 130905Z 29006KT M02/M05 A2994 RMK A01 T10221045  RH  084%=      5-min Rain = 0
KVP1 130906Z 29006KT M02/M04 A2994 RMK A01 T10211044  RH  084%=      5-min Rain = 0
KVP1 130907Z 29006KT M02/M04 A2994 RMK A01 T10201044  RH  084%=      5-min Rain = 0
KVP1 130908Z 29006KT M02/M04 A2994 RMK A01 T10201044  RH  084%=      5-min Rain = 0
KVP1 130909Z 29007KT M02/M04 A2994 RMK A01 T10191043  RH  083%=      5-min Rain = 0
KVP1 130910Z 29007KT M02/M04 A2994 RMK A01 T10181043  RH  083%=      5-min Rain = 0
KVP1 130911Z 29007KT M02/M04 A2994 RMK A01 T10181043  RH  083%=      5-min Rain = 0
KVP1 130912Z 29006KT M02/M04 A2993 RMK A01 T10181043  RH  083%=      5-min Rain = 0
KVP1 130913Z 29007KT M02/M04 A2993 RMK A01 T10171043  RH  082%=      5-min Rain = 0
KVP1 130914Z 29006KT M02/M04 A2993 RMK A01 T10171043  RH  083%=      5-min Rain = 0
KVP1 130915Z 29006KT M02/M04 A2993 RMK A01 T10171043  RH  083%=      5-min Rain = 0
KVP1 130916Z 29006KT M02/M04 A2993 RMK A01 T10171043  RH  082%=      5-min Rain = 0
KVP1 130917Z 29006KT M02/M04 A2993 RMK A01 T10171043  RH  082%=      5-min Rain = 0
KVP1 130918Z 29006KT M02/M04 A2993 RMK A01 T10171043  RH  082%=      5-min Rain = 0
KVP1 130919Z 29006KT M02/M04 A2993 RMK A01 T10171043  RH  082%=      5-min Rain = 0
KVP1 130920Z 29006KT M02/M04 A2993 RMK A01 T10171043  RH  082%=      5-min Rain = 0
KVP1 130926Z 29006KT M02/M04 A2994 RMK A01 T10211044  RH  084%=      5-min Rain = 0
KVP1 130927Z 29006KT M02/M05 A2994 RMK A01 T10211045  RH  084%=      5-min Rain = 0
KVP1 130928Z 29007KT M02/M05 A2994 RMK A01 T10221045  RH  084%=      5-min Rain = 0
KVP1 130929Z 29006KT M02/M05 A2994 RMK A01 T10221045  RH  084%=      5-min Rain = 0
KVP1 130930Z 29006KT M02/M05 A2994 RMK A01 T10221045  RH  085%=      5-min Rain = 0
KVP1 130931Z 29006KT M02/M04 A2994 RMK A01 T10221044  RH  085%=      5-min Rain = 0
KVP1 130932Z 29006KT M02/M04 A2994 RMK A01 T10211043  RH  085%=      5-min Rain = 0
KVP1 130933Z 29006KT M02/M04 A2994 RMK A01 T10211043  RH  085%=      5-min Rain = 0
KVP1 130934Z 29006KT M02/M04 A2993 RMK A01 T10201043  RH  085%=      5-min Rain = 0
KVP1 130935Z 29006KT M02/M04 A2993 RMK A01 T10201043  RH  084%=      5-min Rain = 0
KVP1 130936Z 29006KT M02/M04 A2993 RMK A01 T10191043  RH  084%=      5-min Rain = 0
KVP1 130937Z 28007KT M02/M04 A2993 RMK A01 T10181043  RH  083%=      5-min Rain = 0
KVP1 130938Z 28007KT M02/M04 A2993 RMK A01 T10181044  RH  083%=      5-min Rain = 0
KVP1 130939Z 28007KT M02/M05 A2994 RMK A01 T10191045  RH  082%=      5-min Rain = 0
KVP1 130940Z 28007KT M02/M05 A2994 RMK A01 T10201046  RH  082%=      5-min Rain = 0
KVP1 130941Z 28007KT M02/M05 A2994 RMK A01 T10211046  RH  083%=      5-min Rain = 0
KVP1 130942Z 28007KT M02/M05 A2994 RMK A01 T10221047  RH  083%=      5-min Rain = 0
KVP1 130943Z 28007KT M02/M05 A2994 RMK A01 T10221047  RH  083%=      5-min Rain = 0
KVP1 130944Z 28007KT M02/M05 A2994 RMK A01 T10231047  RH  084%=      5-min Rain = 0
KVP1 130945Z 28007KT M02/M05 A2994 RMK A01 T10221046  RH  084%=      5-min Rain = 0
KVP1 130946Z 28007KT M02/M05 A2994 RMK A01 T10231046  RH  084%=      5-min Rain = 0
KVP1 130947Z 28007KT M02/M05 A2994 RMK A01 T10231046  RH  084%=      5-min Rain = 0
KVP1 130948Z 28007KT M02/M05 A2994 RMK A01 T10241047  RH  084%=      5-min Rain = 0
KVP1 130949Z 28007KT M03/M05 A2994 RMK A01 T10251049  RH  084%=      5-min Rain = 0
KVP1 130950Z 28007KT M03/M05 A2994 RMK A01 T10261049  RH  084%=      5-min Rain = 0
KVP1 130951Z 28007KT M03/M05 A2993 RMK A01 T10271049  RH  085%=      5-min Rain = 0
KVP1 130952Z 28007KT M03/M05 A2993 RMK A01 T10271048  RH  086%=      5-min Rain = 0
KVP1 130953Z 28008KT M03/M05 A2993 RMK A01 T10271048  RH  086%=      5-min Rain = 0
KVP1 130954Z 28007KT M03/M05 A2993 RMK A01 T10271048  RH  086%=      5-min Rain = 0
KVP1 130955Z 29007KT M03/M05 A2993 RMK A01 T10271047  RH  086%=      5-min Rain = 0
KVP1 130956Z 29007KT M03/M05 A2993 RMK A01 T10261046  RH  086%=      5-min Rain = 0
KVP1 130957Z 29007KT M03/M04 A2993 RMK A01 T10251044  RH  086%=      5-min Rain = 0
KVP1 130958Z 29007KT M02/M04 A2993 RMK A01 T10231043  RH  086%=      5-min Rain = 0
KVP1 130959Z 29008KT M02/M04 A2993 RMK A01 T10211041  RH  086%=      5-min Rain = 0
KVP1 131000Z 29008KT M02/M04 A2993 RMK A01 T10191041  RH  085%=      5-min Rain = 0
KVP1 131001Z 29008KT M02/M04 A2993 RMK A01 T10191041  RH  085%=      5-min Rain = 0
KVP1 131002Z 29007KT M02/M04 A2993 RMK A01 T10181041  RH  085%=      5-min Rain = 0
KVP1 131003Z 29008KT M02/M04 A2993 RMK A01 T10181040  RH  085%=      5-min Rain = 0
KVP1 131004Z 29007KT M02/M04 A2993 RMK A01 T10171041  RH  084%=      5-min Rain = 0
KVP1 131005Z 28007KT M02/M04 A2993 RMK A01 T10181041  RH  084%=      5-min Rain = 0
KVP1 131006Z 28007KT M02/M04 A2993 RMK A01 T10181041  RH  084%=      5-min Rain = 0
KVP1 131007Z 28007KT M02/M04 A2993 RMK A01 T10181042  RH  084%=      5-min Rain = 0
KVP1 131008Z 28007KT M02/M04 A2993 RMK A01 T10191043  RH  084%=      5-min Rain = 0
KVP1 131009Z 28007KT M02/M04 A2993 RMK A01 T10201044  RH  084%=      5-min Rain = 0
KVP1 131010Z 28007KT M02/M05 A2993 RMK A01 T10221045  RH  084%=      5-min Rain = 0
KVP1 131011Z 28008KT M02/M05 A2994 RMK A01 T10231045  RH  085%=      5-min Rain = 0
KVP1 131012Z 28008KT M02/M05 A2994 RMK A01 T10231045  RH  085%=      5-min Rain = 0
KVP1 131013Z 29009KT M02/M04 A2994 RMK A01 T10231044  RH  085%=      5-min Rain = 0
KVP1 131014Z 29009KT M02/M04 A2994 RMK A01 T10221042  RH  086%=      5-min Rain = 0
KVP1 131015Z 28008KT M02/M04 A2994 RMK A01 T10201040  RH  086%=      5-min Rain = 0
KVP1 131016Z 28008KT M02/M04 A2994 RMK A01 T10191039  RH  086%=      5-min Rain = 0
KVP1 131017Z 28008KT M02/M04 A2994 RMK A01 T10181039  RH  086%=      5-min Rain = 0
KVP1 131018Z 28008KT M02/M04 A2994 RMK A01 T10181039  RH  086%=      5-min Rain = 0
KVP1 131019Z 28007KT M02/M04 A2994 RMK A01 T10191040  RH  086%=      5-min Rain = 0
KVP1 131020Z 28007KT M02/M04 A2994 RMK A01 T10201041  RH  086%=      5-min Rain = 0
KVP1 131021Z 28008KT M02/M04 A2994 RMK A01 T10211042  RH  086%=      5-min Rain = 0
KVP1 131022Z 28008KT M02/M04 A2994 RMK A01 T10221042  RH  086%=      5-min Rain = 0
KVP1 131023Z 28008KT M02/M04 A2994 RMK A01 T10231042  RH  086%=      5-min Rain = 0
KVP1 131024Z 28008KT M02/M04 A2994 RMK A01 T10231042  RH  087%=      5-min Rain = 0
KVP1 131025Z 28008KT M02/M04 A2993 RMK A01 T10231042  RH  087%=      5-min Rain = 0
KVP1 131026Z 28008KT M02/M04 A2993 RMK A01 T10221041  RH  087%=      5-min Rain = 0
KVP1 131027Z 28008KT M02/M04 A2993 RMK A01 T10221042  RH  086%=      5-min Rain = 0
KVP1 131028Z 28008KT M02/M04 A2993 RMK A01 T10221042  RH  086%=      5-min Rain = 0
KVP1 131029Z 28008KT M02/M04 A2993 RMK A01 T10221042  RH  086%=      5-min Rain = 0
KVP1 131030Z 28008KT M02/M04 A2994 RMK A01 T10221042  RH  086%=      5-min Rain = 0
KVP1 131031Z 28008KT M02/M04 A2994 RMK A01 T10231042  RH  087%=      5-min Rain = 0
KVP1 131032Z 28009KT M02/M04 A2994 RMK A01 T10231042  RH  087%=      5-min Rain = 0
KVP1 131033Z 28009KT M02/M04 A2994 RMK A01 T10221041  RH  087%=      5-min Rain = 0
KVP1 131034Z 28009KT M02/M04 A2994 RMK A01 T10221041  RH  087%=      5-min Rain = 0
KVP1 131035Z 28009KT M02/M04 A2994 RMK A01 T10221041  RH  087%=      5-min Rain = 0
KVP1 131036Z 28009KT M02/M04 A2994 RMK A01 T10221041  RH  087%=      5-min Rain = 0
KVP1 131037Z 28009KT M02/M04 A2994 RMK A01 T10221041  RH  087%=      5-min Rain = 0
KVP1 131038Z 28009KT M02/M04 A2994 RMK A01 T10221041  RH  087%=      5-min Rain = 0
KVP1 131039Z 29009KT M02/M04 A2994 RMK A01 T10211040  RH  087%=      5-min Rain = 0
KVP1 131040Z 29008KT M02/M04 A2994 RMK A01 T10211040  RH  086%=      5-min Rain = 0
KVP1 131041Z 29008KT M02/M04 A2994 RMK A01 T10201040  RH  086%=      5-min Rain = 0
KVP1 131042Z 29008KT M02/M04 A2994 RMK A01 T10191040  RH  086%=      5-min Rain = 0
KVP1 131043Z 29008KT M02/M04 A2993 RMK A01 T10191039  RH  086%=      5-min Rain = 0
KVP1 131044Z 29007KT M02/M04 A2993 RMK A01 T10181039  RH  086%=      5-min Rain = 0
KVP1 131045Z 29007KT M02/M04 A2993 RMK A01 T10181040  RH  085%=      5-min Rain = 0
KVP1 131046Z 28007KT M02/M04 A2993 RMK A01 T10181040  RH  085%=      5-min Rain = 0
KVP1 131047Z 28007KT M02/M04 A2993 RMK A01 T10181040  RH  085%=      5-min Rain = 0
KVP1 131048Z 28007KT M02/M04 A2993 RMK A01 T10191041  RH  085%=      5-min Rain = 0
KVP1 131049Z 28007KT M02/M04 A2993 RMK A01 T10191042  RH  085%=      5-min Rain = 0
KVP1 131050Z 28007KT M02/M04 A2993 RMK A01 T10201042  RH  085%=      5-min Rain = 0
KVP1 131051Z 28007KT M02/M04 A2993 RMK A01 T10211042  RH  085%=      5-min Rain = 0
KVP1 131052Z 28007KT M02/M04 A2993 RMK A01 T10211042  RH  085%=      5-min Rain = 0
KVP1 131053Z 28007KT M02/M04 A2992 RMK A01 T10211042  RH  086%=      5-min Rain = 0
KVP1 131054Z 28006KT M02/M04 A2992 RMK A01 T10211042  RH  086%=      5-min Rain = 0
KVP1 131055Z 28006KT M02/M04 A2992 RMK A01 T10211042  RH  086%=      5-min Rain = 0
KVP1 131056Z 28006KT M02/M04 A2992 RMK A01 T10221043  RH  086%=      5-min Rain = 0
KVP1 131057Z 28006KT M02/M04 A2992 RMK A01 T10221043  RH  086%=      5-min Rain = 0
KVP1 131058Z 27006KT M02/M04 A2992 RMK A01 T10221043  RH  086%=      5-min Rain = 0
KVP1 131059Z 27006KT M02/M04 A2992 RMK A01 T10231043  RH  086%=      5-min Rain = 0
KVP1 131100Z 27006KT M02/M04 A2992 RMK A01 T10231043  RH  086%=      5-min Rain = 0
KVP1 131101Z 27006KT M02/M04 A2992 RMK A01 T10231044  RH  086%=      5-min Rain = 0
KVP1 131102Z 27007KT M02/M05 A2992 RMK A01 T10241045  RH  086%=      5-min Rain = 0
KVP1 131103Z 27008KT M02/M05 A2992 RMK A01 T10241045  RH  086%=      5-min Rain = 0
KVP1 131104Z 27008KT M03/M05 A2992 RMK A01 T10251045  RH  086%=      5-min Rain = 0
KVP1 131105Z 27007KT M02/M04 A2992 RMK A01 T10231043  RH  086%=      5-min Rain = 0
KVP1 131106Z 27006KT M02/M04 A2992 RMK A01 T10211042  RH  086%=      5-min Rain = 0
KVP1 131107Z 27006KT M02/M04 A2992 RMK A01 T10211043  RH  085%=      5-min Rain = 0
KVP1 131108Z 27006KT M02/M04 A2992 RMK A01 T10221044  RH  085%=      5-min Rain = 0
KVP1 131109Z 27006KT M02/M04 A2992 RMK A01 T10221044  RH  085%=      5-min Rain = 0
KVP1 131110Z 27006KT M02/M05 A2992 RMK A01 T10231045  RH  085%=      5-min Rain = 0
KVP1 131111Z 27005KT M02/M05 A2992 RMK A01 T10241045  RH  085%=      5-min Rain = 0
KVP1 131112Z 27005KT M02/M05 A2992 RMK A01 T10241046  RH  085%=      5-min Rain = 0
KVP1 131113Z 27005KT M03/M05 A2992 RMK A01 T10251046  RH  086%=      5-min Rain = 0
KVP1 131114Z 28006KT M03/M05 A2992 RMK A01 T10251045  RH  086%=      5-min Rain = 0
KVP1 131115Z 28006KT M03/M05 A2992 RMK A01 T10251045  RH  086%=      5-min Rain = 0
KVP1 131116Z 28007KT M03/M05 A2992 RMK A01 T10251045  RH  086%=      5-min Rain = 0
KVP1 131117Z 28008KT M03/M05 A2992 RMK A01 T10251046  RH  086%=      5-min Rain = 0
KVP1 131118Z 28008KT M03/M05 A2992 RMK A01 T10251045  RH  086%=      5-min Rain = 0
KVP1 131119Z 28008KT M02/M04 A2992 RMK A01 T10241044  RH  087%=      5-min Rain = 0
KVP1 131120Z 28008KT M02/M04 A2992 RMK A01 T10241043  RH  087%=      5-min Rain = 0
KVP1 131121Z 28008KT M02/M04 A2992 RMK A01 T10241043  RH  087%=      5-min Rain = 0
KVP1 131122Z 28008KT M02/M04 A2992 RMK A01 T10241043  RH  087%=      5-min Rain = 0
KVP1 131123Z 28008KT M02/M04 A2992 RMK A01 T10241043  RH  087%=      5-min Rain = 0
KVP1 131124Z 28008KT M02/M04 A2992 RMK A01 T10241043  RH  087%=      5-min Rain = 0
KVP1 131125Z 28008KT M03/M04 A2991 RMK A01 T10251044  RH  087%=      5-min Rain = 0
KVP1 131126Z 29008KT M03/M04 A2991 RMK A01 T10251043  RH  087%=      5-min Rain = 0
KVP1 131127Z 29008KT M03/M04 A2992 RMK A01 T10261044  RH  087%=      5-min Rain = 0
KVP1 131128Z 29008KT M03/M04 A2992 RMK A01 T10261044  RH  087%=      5-min Rain = 0
KVP1 131129Z 29008KT M03/M04 A2992 RMK A01 T10261044  RH  087%=      5-min Rain = 0
KVP1 131130Z 28008KT M03/M04 A2992 RMK A01 T10261044  RH  088%=      5-min Rain = 0
KVP1 131131Z 28009KT M03/M04 A2992 RMK A01 T10261044  RH  088%=      5-min Rain = 0
KVP1 131132Z 28009KT M03/M04 A2992 RMK A01 T10261044  RH  088%=      5-min Rain = 0
KVP1 131133Z 28009KT M03/M04 A2992 RMK A01 T10261044  RH  088%=      5-min Rain = 0
KVP1 131134Z 28009KT M03/M04 A2992 RMK A01 T10261044  RH  088%=      5-min Rain = 0
KVP1 131135Z 29009KT M03/M04 A2992 RMK A01 T10261043  RH  088%=      5-min Rain = 0
KVP1 131136Z 29009KT M03/M04 A2992 RMK A01 T10261043  RH  088%=      5-min Rain = 0
KVP1 131137Z 29009KT M03/M04 A2992 RMK A01 T10261043  RH  088%=      5-min Rain = 0
KVP1 131138Z 29009KT M03/M04 A2992 RMK A01 T10251043  RH  088%=      5-min Rain = 0
KVP1 131139Z 29009KT M03/M04 A2992 RMK A01 T10251043  RH  088%=      5-min Rain = 0
KVP1 131140Z 29008KT M02/M04 A2992 RMK A01 T10241042  RH  088%=      5-min Rain = 0
KVP1 131141Z 29009KT M02/M04 A2992 RMK A01 T10231041  RH  088%=      5-min Rain = 0
KVP1 131142Z 29009KT M02/M04 A2992 RMK A01 T10221041  RH  087%=      5-min Rain = 0
KVP1 131143Z 29008KT M02/M04 A2992 RMK A01 T10211041  RH  087%=      5-min Rain = 0
KVP1 131144Z 29009KT M02/M04 A2992 RMK A01 T10211041  RH  086%=      5-min Rain = 0
KVP1 131145Z 29008KT M02/M04 A2992 RMK A01 T10211041  RH  086%=      5-min Rain = 0
KVP1 131146Z 29008KT M02/M04 A2992 RMK A01 T10201041  RH  086%=      5-min Rain = 0
KVP1 131147Z 29008KT M02/M04 A2992 RMK A01 T10201041  RH  086%=      5-min Rain = 0
KVP1 131148Z 29008KT M02/M04 A2992 RMK A01 T10201041  RH  086%=      5-min Rain = 0
KVP1 131149Z 29008KT M02/M04 A2992 RMK A01 T10201040  RH  086%=      5-min Rain = 0
KVP1 131150Z 28008KT M02/M04 A2992 RMK A01 T10201041  RH  086%=      5-min Rain = 0
KVP1 131151Z 28008KT M02/M04 A2992 RMK A01 T10201041  RH  085%=      5-min Rain = 0
KVP1 131152Z 28008KT M02/M04 A2991 RMK A01 T10201042  RH  085%=      5-min Rain = 0
KVP1 131153Z 28008KT M02/M04 A2992 RMK A01 T10221043  RH  085%=      5-min Rain = 0
KVP1 131154Z 29008KT M02/M05 A2992 RMK A01 T10231045  RH  085%=      5-min Rain = 0
KVP1 131155Z 29008KT M02/M05 A2992 RMK A01 T10241046  RH  085%=      5-min Rain = 0
KVP1 131156Z 29008KT M03/M05 A2992 RMK A01 T10251046  RH  086%=      5-min Rain = 0
KVP1 131157Z 29008KT M03/M05 A2992 RMK A01 T10261046  RH  086%=      5-min Rain = 0
KVP1 131158Z 29007KT M03/M05 A2991 RMK A01 T10251045  RH  086%=      5-min Rain = 0
KVP1 131159Z 29007KT M03/M05 A2991 RMK A01 T10251045  RH  087%=      5-min Rain = 0
KVP1 131200Z 29007KT M03/M04 A2991 RMK A01 T10251044  RH  087%=      5-min Rain = 0
KVP1 131201Z 29007KT M02/M04 A2992 RMK A01 T10241043  RH  087%=      5-min Rain = 0
KVP1 131202Z 29006KT M02/M04 A2992 RMK A01 T10231043  RH  086%=      5-min Rain = 0
KVP1 131203Z 29006KT M02/M04 A2992 RMK A01 T10231043  RH  086%=      5-min Rain = 0
KVP1 131204Z 29007KT M02/M04 A2992 RMK A01 T10221043  RH  086%=      5-min Rain = 0
KVP1 131205Z 29007KT M02/M04 A2992 RMK A01 T10221044  RH  085%=      5-min Rain = 0
KVP1 131206Z 29007KT M02/M04 A2992 RMK A01 T10221044  RH  085%=      5-min Rain = 0
KVP1 131207Z 29008KT M02/M05 A2992 RMK A01 T10221045  RH  084%=      5-min Rain = 0
KVP1 131208Z 29008KT M02/M05 A2992 RMK A01 T10221045  RH  084%=      5-min Rain = 0
KVP1 131209Z 29008KT M02/M05 A2992 RMK A01 T10221046  RH  084%=      5-min Rain = 0
KVP1 131210Z 29008KT M02/M05 A2992 RMK A01 T10221045  RH  084%=      5-min Rain = 0
KVP1 131211Z 29009KT M02/M05 A2992 RMK A01 T10221045  RH  085%=      5-min Rain = 0
KVP1 131212Z 29009KT M02/M04 A2992 RMK A01 T10221044  RH  085%=      5-min Rain = 0
KVP1 131213Z 29009KT M02/M04 A2992 RMK A01 T10201043  RH  085%=      5-min Rain = 0
KVP1 131214Z 29008KT M02/M04 A2992 RMK A01 T10171041  RH  084%=      5-min Rain = 0
KVP1 131215Z 29008KT M02/M04 A2992 RMK A01 T10151040  RH  083%=      5-min Rain = 0
KVP1 131216Z 29008KT M01/M04 A2991 RMK A01 T10131040  RH  082%=      5-min Rain = 0
KVP1 131217Z 29008KT M01/M04 A2991 RMK A01 T10111040  RH  081%=      5-min Rain = 0
KVP1 131218Z 29008KT M01/M04 A2991 RMK A01 T10101040  RH  080%=      5-min Rain = 0
KVP1 131219Z 29008KT M01/M04 A2991 RMK A01 T10101040  RH  080%=      5-min Rain = 0
KVP1 131220Z 29008KT M01/M04 A2991 RMK A01 T10101041  RH  079%=      5-min Rain = 0
KVP1 131221Z 29008KT M01/M04 A2992 RMK A01 T10091041  RH  079%=      5-min Rain = 0
KVP1 131222Z 29008KT M01/M04 A2992 RMK A01 T10091041  RH  079%=      5-min Rain = 0
KVP1 131223Z 29008KT M01/M04 A2992 RMK A01 T10081040  RH  079%=      5-min Rain = 0
KVP1 131224Z 29008KT M01/M04 A2992 RMK A01 T10081039  RH  079%=      5-min Rain = 0
KVP1 131225Z 29008KT M01/M04 A2992 RMK A01 T10071039  RH  079%=      5-min Rain = 0
KVP1 131226Z 29008KT M01/M04 A2991 RMK A01 T10071039  RH  079%=      5-min Rain = 0
KVP1 131227Z 29008KT M01/M04 A2991 RMK A01 T10081040  RH  079%=      5-min Rain = 0
KVP1 131228Z 29009KT M01/M04 A2991 RMK A01 T10081040  RH  079%=      5-min Rain = 0
KVP1 131229Z 29009KT M01/M04 A2991 RMK A01 T10081039  RH  079%=      5-min Rain = 0
KVP1 131230Z 29009KT M01/M04 A2991 RMK A01 T10081039  RH  079%=      5-min Rain = 0
KVP1 131231Z 29009KT M01/M04 A2991 RMK A01 T10061038  RH  079%=      5-min Rain = 0
KVP1 131232Z 29009KT M01/M04 A2991 RMK A01 T10051038  RH  078%=      5-min Rain = 0
KVP1 131233Z 29009KT M00/M04 A2991 RMK A01 T10041038  RH  078%=      5-min Rain = 0
KVP1 131234Z 29010KT M00/M04 A2991 RMK A01 T10021037  RH  078%=      5-min Rain = 0
KVP1 131235Z 29010KT 00/04 A2991 RMK A01 T00-00-36  RH  077%=      5-min Rain = 0
KVP1 131236Z 29010KT 00/M04 A2991 RMK A01 T00011036  RH  076%=      5-min Rain = 0
KVP1 131237Z 29010KT 00/M04 A2991 RMK A01 T00031036  RH  076%=      5-min Rain = 0
KVP1 131238Z 29009KT 01/M04 A2991 RMK A01 T00051035  RH  075%=      5-min Rain = 0
KVP1 131239Z 29008KT 01/M03 A2991 RMK A01 T00061034  RH  074%=      5-min Rain = 0
KVP1 131240Z 30008KT 01/M03 A2991 RMK A01 T00061034  RH  074%=      5-min Rain = 0
KVP1 131241Z 30008KT 01/M04 A2991 RMK A01 T00061035  RH  074%=      5-min Rain = 0
KVP1 131242Z 30008KT 01/M03 A2991 RMK A01 T00071034  RH  074%=      5-min Rain = 0
KVP1 131243Z 30008KT 01/M04 A2991 RMK A01 T00071035  RH  074%=      5-min Rain = 0
KVP1 131244Z 30008KT 01/M04 A2991 RMK A01 T00071035  RH  073%=      5-min Rain = 0
KVP1 131245Z 30008KT 01/M04 A2991 RMK A01 T00071036  RH  073%=      5-min Rain = 0
KVP1 131246Z 30009KT 01/M04 A2991 RMK A01 T00071036  RH  073%=      5-min Rain = 0
KVP1 131247Z 30009KT 01/M04 A2991 RMK A01 T00071036  RH  073%=      5-min Rain = 0
KVP1 131248Z 30008KT 01/M04 A2991 RMK A01 T00061036  RH  074%=      5-min Rain = 0
KVP1 131249Z 30008KT 01/M04 A2991 RMK A01 T00051036  RH  074%=      5-min Rain = 0
KVP1 131250Z 30008KT 00/M04 A2991 RMK A01 T00041036  RH  075%=      5-min Rain = 0
KVP1 131251Z 30008KT 00/M04 A2991 RMK A01 T00031036  RH  075%=      5-min Rain = 0
KVP1 131252Z 30008KT 00/M04 A2991 RMK A01 T00011036  RH  076%=      5-min Rain = 0
KVP1 131253Z 30008KT 00/04 A2991 RMK A01 T00000-37  RH  076%=      5-min Rain = 0
KVP1 131254Z 30007KT 00/04 A2991 RMK A01 T00-00-37  RH  076%=      5-min Rain = 0
KVP1 131255Z 30007KT M00/M04 A2991 RMK A01 T10011037  RH  077%=      5-min Rain = 0
KVP1 131256Z 30007KT M00/M04 A2991 RMK A01 T10021038  RH  077%=      5-min Rain = 0
KVP1 131257Z 30007KT M00/M04 A2991 RMK A01 T10031038  RH  078%=      5-min Rain = 0
KVP1 131258Z 30007KT M00/M04 A2991 RMK A01 T10041038  RH  078%=      5-min Rain = 0
KVP1 131259Z 29007KT M00/M04 A2991 RMK A01 T10041038  RH  078%=      5-min Rain = 0
KVP1 131300Z 30007KT M01/M04 A2991 RMK A01 T10051038  RH  078%=      5-min Rain = 0
KVP1 131301Z 30007KT M01/M04 A2991 RMK A01 T10061039  RH  078%=      5-min Rain = 0
KVP1 131302Z 29007KT M01/M04 A2991 RMK A01 T10061039  RH  079%=      5-min Rain = 0
KVP1 131303Z 29007KT M01/M04 A2991 RMK A01 T10071039  RH  079%=      5-min Rain = 0
KVP1 131304Z 29007KT M01/M04 A2991 RMK A01 T10071039  RH  079%=      5-min Rain = 0
KVP1 131305Z 29007KT M01/M04 A2991 RMK A01 T10071039  RH  079%=      5-min Rain = 0
KVP1 131306Z 29007KT M01/M04 A2991 RMK A01 T10081040  RH  079%=      5-min Rain = 0
KVP1 131307Z 29007KT M01/M04 A2991 RMK A01 T10091040  RH  079%=      5-min Rain = 0
KVP1 131308Z 29007KT M01/M04 A2991 RMK A01 T10101041  RH  080%=      5-min Rain = 0
KVP1 131309Z 29007KT M01/M04 A2991 RMK A01 T10111041  RH  080%=      5-min Rain = 0
KVP1 131310Z 29008KT M01/M04 A2991 RMK A01 T10121041  RH  080%=      5-min Rain = 0
KVP1 131311Z 29008KT M01/M04 A2991 RMK A01 T10131042  RH  081%=      5-min Rain = 0
KVP1 131312Z 29008KT M01/M04 A2991 RMK A01 T10141042  RH  081%=      5-min Rain = 0
KVP1 131313Z 29007KT M02/M04 A2991 RMK A01 T10151042  RH  082%=      5-min Rain = 0
KVP1 131314Z 29007KT M02/M04 A2992 RMK A01 T10151042  RH  082%=      5-min Rain = 0
KVP1 131315Z 29007KT M02/M04 A2992 RMK A01 T10151042  RH  082%=      5-min Rain = 0
KVP1 131316Z 29008KT M02/M04 A2992 RMK A01 T10161042  RH  083%=      5-min Rain = 0
KVP1 131317Z 29008KT M02/M04 A2992 RMK A01 T10161041  RH  083%=      5-min Rain = 0
KVP1 131318Z 29008KT M02/M04 A2992 RMK A01 T10161041  RH  083%=      5-min Rain = 0
KVP1 131319Z 28008KT M02/M04 A2992 RMK A01 T10151040  RH  083%=      5-min Rain = 0
KVP1 131320Z 28008KT M02/M04 A2992 RMK A01 T10161040  RH  083%=      5-min Rain = 0
KVP1 131321Z 28008KT M02/M04 A2992 RMK A01 T10151040  RH  083%=      5-min Rain = 0
KVP1 131322Z 28008KT M02/M04 A2992 RMK A01 T10151040  RH  083%=      5-min Rain = 0
KVP1 131323Z 28007KT M02/M04 A2992 RMK A01 T10161040  RH  083%=      5-min Rain = 0
KVP1 131324Z 28007KT M02/M04 A2992 RMK A01 T10161040  RH  084%=      5-min Rain = 0
KVP1 131325Z 28007KT M02/M04 A2992 RMK A01 T10161040  RH  084%=      5-min Rain = 0
KVP1 131326Z 27007KT M02/M04 A2992 RMK A01 T10161040  RH  084%=      5-min Rain = 0
KVP1 131327Z 27007KT M02/M04 A2992 RMK A01 T10151040  RH  083%=      5-min Rain = 0
KVP1 131328Z 26006KT M02/M04 A2992 RMK A01 T10161041  RH  083%=      5-min Rain = 0
KVP1 131329Z 25006KT M02/M04 A2992 RMK A01 T10171041  RH  083%=      5-min Rain = 0
KVP1 131330Z 25006KT M02/M04 A2992 RMK A01 T10171041  RH  084%=      5-min Rain = 0
KVP1 131331Z 25006KT M02/M04 A2993 RMK A01 T10171041  RH  084%=      5-min Rain = 0
KVP1 131332Z 24004KT M02/M04 A2993 RMK A01 T10181041  RH  084%=      5-min Rain = 0
KVP1 131333Z 24005KT M02/M04 A2993 RMK A01 T10201044  RH  084%=      5-min Rain = 0
KVP1 131334Z 23005KT M02/M05 A2993 RMK A01 T10231048  RH  083%=      5-min Rain = 0
KVP1 131335Z 23006KT M03/M05 A2993 RMK A01 T10271051  RH  084%=      5-min Rain = 0
KVP1 131336Z 23006KT M03/M05 A2993 RMK A01 T10301053  RH  084%=      5-min Rain = 0
KVP1 131337Z 23006KT M03/M06 A2993 RMK A01 T10331055  RH  085%=      5-min Rain = 0
KVP1 131338Z 24007KT M04/M06 A2993 RMK A01 T10351056  RH  085%=      5-min Rain = 0
KVP1 131339Z 23007KT M04/M06 A2993 RMK A01 T10361056  RH  086%=      5-min Rain = 0
KVP1 131340Z 23007KT M04/M06 A2993 RMK A01 T10371056  RH  087%=      5-min Rain = 0
KVP1 131341Z 23007KT M04/M06 A2993 RMK A01 T10381056  RH  088%=      5-min Rain = 0
KVP1 131342Z 22008KT M04/M06 A2993 RMK A01 T10391056  RH  088%=      5-min Rain = 0
KVP1 131343Z 22009KT M04/M06 A2993 RMK A01 T10391056  RH  089%=      5-min Rain = 0
KVP1 131344Z 22009KT M04/M06 A2993 RMK A01 T10401055  RH  089%=      5-min Rain = 0
KVP1 131345Z 22009KT M04/M06 A2993 RMK A01 T10401055  RH  090%=      5-min Rain = 0
KVP1 131346Z 23009KT M04/M05 A2993 RMK A01 T10401054  RH  090%=      5-min Rain = 0
KVP1 131347Z 23008KT M04/M05 A2993 RMK A01 T10391053  RH  090%=      5-min Rain = 0
KVP1 131348Z 24009KT M04/M05 A2993 RMK A01 T10391053  RH  090%=      5-min Rain = 0
KVP1 131349Z 24008KT M04/M05 A2993 RMK A01 T10381052  RH  090%=      5-min Rain = 0
KVP1 131350Z 24008KT M04/M05 A2993 RMK A01 T10371050  RH  091%=      5-min Rain = 0
KVP1 131351Z 25008KT M04/M05 A2993 RMK A01 T10361049  RH  090%=      5-min Rain = 0
KVP1 131352Z 25008KT M03/M05 A2993 RMK A01 T10341048  RH  090%=      5-min Rain = 0
KVP1 131353Z 25008KT M03/M05 A2992 RMK A01 T10331048  RH  090%=      5-min Rain = 0
KVP1 131354Z 26008KT M03/M05 A2992 RMK A01 T10321048  RH  089%=      5-min Rain = 0
KVP1 131355Z 26008KT M03/M05 A2992 RMK A01 T10321048  RH  089%=      5-min Rain = 0
KVP1 131356Z 26008KT M03/M05 A2992 RMK A01 T10311047  RH  089%=      5-min Rain = 0
KVP1 131357Z 26008KT M03/M05 A2992 RMK A01 T10301046  RH  089%=      5-min Rain = 0
KVP1 131358Z 26008KT M03/M05 A2992 RMK A01 T10281045  RH  088%=      5-min Rain = 0
KVP1 131359Z 26008KT M03/M04 A2992 RMK A01 T10271044  RH  088%=      5-min Rain = 0
KVP1 131400Z 26008KT M03/M04 A2992 RMK A01 T10251043  RH  088%=      5-min Rain = 0
KVP1 131401Z 26008KT M02/M04 A2993 RMK A01 T10241042  RH  087%=      5-min Rain = 0
KVP1 131402Z 26008KT M02/M04 A2993 RMK A01 T10231042  RH  087%=      5-min Rain = 0
KVP1 131403Z 26008KT M02/M04 A2993 RMK A01 T10221041  RH  087%=      5-min Rain = 0
KVP1 131404Z 26008KT M02/M04 A2993 RMK A01 T10211040  RH  086%=      5-min Rain = 0
KVP1 131405Z 26008KT M02/M04 A2993 RMK A01 T10201040  RH  086%=      5-min Rain = 0
KVP1 131406Z 26008KT M02/M04 A2993 RMK A01 T10191039  RH  086%=      5-min Rain = 0
KVP1 131407Z 26008KT M02/M04 A2993 RMK A01 T10181039  RH  086%=      5-min Rain = 0
KVP1 131408Z 26009KT M02/M04 A2993 RMK A01 T10171038  RH  086%=      5-min Rain = 0
KVP1 131409Z 26009KT M02/M04 A2993 RMK A01 T10161037  RH  085%=      5-min Rain = 0
KVP1 131410Z 26009KT M02/M04 A2993 RMK A01 T10151037  RH  085%=      5-min Rain = 0
KVP1 131411Z 26009KT M01/M04 A2993 RMK A01 T10141036  RH  085%=      5-min Rain = 0
KVP1 131412Z 26009KT M01/M04 A2993 RMK A01 T10131035  RH  085%=      5-min Rain = 0
KVP1 131413Z 27009KT M01/M03 A2993 RMK A01 T10111034  RH  084%=      5-min Rain = 0
KVP1 131414Z 27009KT M01/M03 A2993 RMK A01 T10101033  RH  084%=      5-min Rain = 0
KVP1 131415Z 27008KT M01/M03 A2993 RMK A01 T10081033  RH  083%=      5-min Rain = 0
KVP1 131416Z 27008KT M01/M03 A2993 RMK A01 T10071033  RH  083%=      5-min Rain = 0
KVP1 131417Z 27008KT M01/M03 A2993 RMK A01 T10061032  RH  083%=      5-min Rain = 0
KVP1 131418Z 27009KT M01/M03 A2993 RMK A01 T10051032  RH  082%=      5-min Rain = 0
KVP1 131419Z 27009KT M00/M03 A2993 RMK A01 T10041031  RH  082%=      5-min Rain = 0
KVP1 131420Z 27010KT M00/M03 A2993 RMK A01 T10021030  RH  082%=      5-min Rain = 0
KVP1 131421Z 28010KT 00/03 A2993 RMK A01 T00000-29  RH  081%=      5-min Rain = 0
KVP1 131422Z 28010KT 00/M03 A2993 RMK A01 T00031028  RH  080%=      5-min Rain = 0
KVP1 131423Z 28010KT 01/M03 A2993 RMK A01 T00051027  RH  079%=      5-min Rain = 0
KVP1 131424Z 28009KT 01/M03 A2993 RMK A01 T00071026  RH  078%=      5-min Rain = 0
KVP1 131425Z 28009KT 01/M03 A2993 RMK A01 T00091025  RH  078%=      5-min Rain = 0
KVP1 131426Z 29008KT 01/M03 A2993 RMK A01 T00101025  RH  078%=      5-min Rain = 0
KVP1 131427Z 29008KT 01/M03 A2993 RMK A01 T00101025  RH  077%=      5-min Rain = 0
KVP1 131428Z 29008KT 01/M02 A2993 RMK A01 T00101024  RH  078%=      5-min Rain = 0
KVP1 131429Z 30008KT 01/M02 A2993 RMK A01 T00111024  RH  078%=      5-min Rain = 0
KVP1 131430Z 30008KT 01/M03 A2993 RMK A01 T00111025  RH  077%=      5-min Rain = 0
KVP1 131431Z 30009KT 01/M02 A2993 RMK A01 T00111024  RH  077%=      5-min Rain = 0
KVP1 131432Z 29009KT 01/M02 A2993 RMK A01 T00121024  RH  077%=      5-min Rain = 0
KVP1 131433Z 29009KT 01/M02 A2993 RMK A01 T00131023  RH  077%=      5-min Rain = 0
KVP1 131434Z 29009KT 01/M02 A2993 RMK A01 T00141023  RH  076%=      5-min Rain = 0
KVP1 131435Z 30008KT 02/M02 A2994 RMK A01 T00151022  RH  076%=      5-min Rain = 0
KVP1 131436Z 30008KT 02/M02 A2994 RMK A01 T00161022  RH  076%=      5-min Rain = 0
KVP1 131437Z 31007KT 02/M02 A2993 RMK A01 T00171022  RH  076%=      5-min Rain = 0
KVP1 131438Z 31007KT 02/M02 A2993 RMK A01 T00171021  RH  076%=      5-min Rain = 0
KVP1 131439Z 30007KT 02/M02 A2993 RMK A01 T00181021  RH  076%=      5-min Rain = 0
KVP1 131440Z 30007KT 02/M02 A2993 RMK A01 T00191020  RH  076%=      5-min Rain = 0
KVP1 131441Z 30007KT 02/M02 A2993 RMK A01 T00191018  RH  076%=      5-min Rain = 0
KVP1 131442Z 30007KT 02/M02 A2993 RMK A01 T00201017  RH  076%=      5-min Rain = 0
KVP1 131443Z 29007KT 02/M02 A2993 RMK A01 T00211016  RH  076%=      5-min Rain = 0
KVP1 131444Z 29007KT 02/M02 A2993 RMK A01 T00231016  RH  075%=      5-min Rain = 0
KVP1 131445Z 29007KT 02/M02 A2993 RMK A01 T00241015  RH  075%=      5-min Rain = 0
KVP1 131446Z 28007KT 03/M02 A2993 RMK A01 T00251015  RH  075%=      5-min Rain = 0
KVP1 131447Z 28007KT 03/M01 A2993 RMK A01 T00251014  RH  075%=      5-min Rain = 0
KVP1 131448Z 28008KT 03/M01 A2994 RMK A01 T00261013  RH  075%=      5-min Rain = 0
KVP1 131449Z 28007KT 03/M01 A2994 RMK A01 T00271013  RH  075%=      5-min Rain = 0
KVP1 131450Z 28008KT 03/M01 A2994 RMK A01 T00281012  RH  075%=      5-min Rain = 0
KVP1 131451Z 29008KT 03/M01 A2994 RMK A01 T00291010  RH  075%=      5-min Rain = 0
KVP1 131452Z 29009KT 03/M01 A2993 RMK A01 T00301011  RH  075%=      5-min Rain = 0
KVP1 131453Z 28009KT 03/M01 A2994 RMK A01 T00311010  RH  074%=      5-min Rain = 0
KVP1 131454Z 28008KT 03/M01 A2994 RMK A01 T00331009  RH  074%=      5-min Rain = 0
KVP1 131455Z 29009KT 03/M01 A2994 RMK A01 T00341008  RH  074%=      5-min Rain = 0
KVP1 131456Z 29010KT 04/M01 A2993 RMK A01 T00361010  RH  072%=      5-min Rain = 0
KVP1 131457Z 29009KT 04/M01 A2993 RMK A01 T00371011  RH  071%=      5-min Rain = 0
KVP1 131458Z 29008KT 04/M01 A2993 RMK A01 T00381009  RH  071%=      5-min Rain = 0
KVP1 131459Z 29010KT 04/M01 A2994 RMK A01 T00391008  RH  072%=      5-min Rain = 0
KVP1 131500Z 29009KT 04/M01 A2994 RMK A01 T00401008  RH  071%=      5-min Rain = 0
KVP1 131501Z 29009KT 04/M01 A2994 RMK A01 T00411006  RH  071%=      5-min Rain = 0
KVP1 131502Z 29009KT 04/M01 A2994 RMK A01 T00421006  RH  071%=      5-min Rain = 0
KVP1 131503Z 29010KT 04/M01 A2994 RMK A01 T00431007  RH  070%=      5-min Rain = 0
KVP1 131504Z 30009KT 04/M01 A2994 RMK A01 T00441007  RH  069%=      5-min Rain = 0
KVP1 131505Z 30008KT 05/M01 A2994 RMK A01 T00451005  RH  070%=      5-min Rain = 0
KVP1 131506Z 30009KT 05/M01 A2994 RMK A01 T00451005  RH  070%=      5-min Rain = 0
KVP1 131507Z 30009KT 05/M01 A2994 RMK A01 T00451006  RH  069%=      5-min Rain = 0
KVP1 131508Z 30008KT 05/M01 A2994 RMK A01 T00461005  RH  070%=      5-min Rain = 0
KVP1 131509Z 30009KT 05/M00 A2994 RMK A01 T00471003  RH  070%=      5-min Rain = 0
KVP1 131510Z 30009KT 05/M01 A2994 RMK A01 T00471005  RH  069%=      5-min Rain = 0
KVP1 131511Z 30010KT 05/M01 A2994 RMK A01 T00471005  RH  069%=      5-min Rain = 0
KVP1 131512Z 31011KT 05/M01 A2994 RMK A01 T00481005  RH  069%=      5-min Rain = 0
KVP1 131513Z 31010KT 05/M01 A2993 RMK A01 T00491006  RH  068%=      5-min Rain = 0
KVP1 131514Z 30009KT 05/M00 A2993 RMK A01 T00501004  RH  068%=      5-min Rain = 0
KVP1 131515Z 31009KT 05/M00 A2993 RMK A01 T00501004  RH  068%=      5-min Rain = 0
KVP1 131516Z 30008KT 05/M00 A2993 RMK A01 T00511003  RH  068%=      5-min Rain = 0
KVP1 131517Z 30008KT 05/M00 A2993 RMK A01 T00521001  RH  068%=      5-min Rain = 0
KVP1 131518Z 30008KT 05/00 A2993 RMK A01 T00540001  RH  068%=      5-min Rain = 0
KVP1 131519Z 31008KT 06/00 A2993 RMK A01 T00550000  RH  068%=      5-min Rain = 0
KVP1 131520Z 31007KT 06/00 A2993 RMK A01 T00570001  RH  067%=      5-min Rain = 0
KVP1 131521Z 30006KT 06/00 A2993 RMK A01 T00590003  RH  067%=      5-min Rain = 0
KVP1 131522Z 30008KT 06/01 A2994 RMK A01 T00610005  RH  067%=      5-min Rain = 0
KVP1 131523Z 31009KT 06/00 A2994 RMK A01 T00630002  RH  065%=      5-min Rain = 0
KVP1 131524Z 30009KT 06/00 A2994 RMK A01 T00640002  RH  064%=      5-min Rain = 0
KVP1 131525Z 29007KT 07/00 A2994 RMK A01 T00660004  RH  064%=      5-min Rain = 0
KVP1 131526Z 30008KT 07/00 A2994 RMK A01 T00680004  RH  064%=      5-min Rain = 0
KVP1 131527Z 29007KT 07/01 A2994 RMK A01 T00700005  RH  063%=      5-min Rain = 0
KVP1 131528Z 29007KT 07/01 A2994 RMK A01 T00720005  RH  063%=      5-min Rain = 0
KVP1 131529Z 29007KT 07/01 A2994 RMK A01 T00740006  RH  062%=      5-min Rain = 0
KVP1 131530Z 29008KT 08/01 A2994 RMK A01 T00760007  RH  062%=      5-min Rain = 0
KVP1 131531Z 29010KT 08/00 A2994 RMK A01 T00760004  RH  060%=      5-min Rain = 0
KVP1 131532Z 29009KT 08/00 A2994 RMK A01 T00770003  RH  060%=      5-min Rain = 0
KVP1 131533Z 29009KT 08/00 A2994 RMK A01 T00770003  RH  059%=      5-min Rain = 0
KVP1 131534Z 29008KT 08/00 A2994 RMK A01 T00780004  RH  059%=      5-min Rain = 0
KVP1 131535Z 28008KT 08/01 A2994 RMK A01 T00800006  RH  060%=      5-min Rain = 0
KVP1 131536Z 29009KT 08/01 A2994 RMK A01 T00820005  RH  058%=      5-min Rain = 0
KVP1 131537Z 29009KT 08/01 A2994 RMK A01 T00830005  RH  058%=      5-min Rain = 0
KVP1 131538Z 29009KT 08/01 A2994 RMK A01 T00840005  RH  057%=      5-min Rain = 0
KVP1 131539Z 29008KT 09/01 A2994 RMK A01 T00850006  RH  058%=      5-min Rain = 0
KVP1 131540Z 28010KT 09/01 A2994 RMK A01 T00870005  RH  057%=      5-min Rain = 0
KVP1 131541Z 28009KT 09/00 A2994 RMK A01 T00870004  RH  056%=      5-min Rain = 0
KVP1 131542Z 28010KT 09/00 A2994 RMK A01 T00870004  RH  056%=      5-min Rain = 0
KVP1 131543Z 28009KT 09/00 A2994 RMK A01 T00870004  RH  056%=      5-min Rain = 0
KVP1 131544Z 28006KT 09/01 A2994 RMK A01 T00870005  RH  056%=      5-min Rain = 0
KVP1 131545Z 27006KT 09/01 A2993 RMK A01 T00890008  RH  057%=      5-min Rain = 0
KVP1 131546Z 28006KT 09/01 A2993 RMK A01 T00900007  RH  056%=      5-min Rain = 0
KVP1 131547Z 28008KT 09/01 A2993 RMK A01 T00900006  RH  055%=      5-min Rain = 0
KVP1 131548Z 28007KT 09/01 A2993 RMK A01 T00910007  RH  055%=      5-min Rain = 0
KVP1 131549Z 28005KT 09/01 A2993 RMK A01 T00920007  RH  055%=      5-min Rain = 0
KVP1 131550Z 28007KT 09/01 A2994 RMK A01 T00940009  RH  056%=      5-min Rain = 0
KVP1 131551Z 29007KT 10/01 A2994 RMK A01 T00950008  RH  055%=      5-min Rain = 0
KVP1 131552Z 28008KT 10/01 A2994 RMK A01 T00960008  RH  054%=      5-min Rain = 0
KVP1 131553Z 28006KT 10/01 A2994 RMK A01 T00970008  RH  054%=      5-min Rain = 0
KVP1 131554Z 29006KT 10/01 A2994 RMK A01 T00990009  RH  054%=      5-min Rain = 0
KVP1 131555Z 28008KT 10/01 A2994 RMK A01 T01010010  RH  053%=      5-min Rain = 0
KVP1 131556Z 29008KT 10/01 A2994 RMK A01 T01020006  RH  051%=      5-min Rain = 0
KVP1 131557Z 29008KT 10/01 A2994 RMK A01 T01020006  RH  051%=      5-min Rain = 0
KVP1 131558Z 29009KT 10/01 A2993 RMK A01 T01040007  RH  051%=      5-min Rain = 0
KVP1 131559Z 28011KT 11/01 A2993 RMK A01 T01050005  RH  050%=      5-min Rain = 0
KVP1 131600Z 28011KT 11/00 A2993 RMK A01 T01060003  RH  049%=      5-min Rain = 0
KVP1 131601Z 28009KT 11/00 A2993 RMK A01 T01060002  RH  048%=      5-min Rain = 0
KVP1 131602Z 29011KT 11/00 A2993 RMK A01 T01070003  RH  049%=      5-min Rain = 0
KVP1 131603Z 28010KT 11/00 A2993 RMK A01 T01080004  RH  049%=      5-min Rain = 0
KVP1 131604Z 28013KT 11/00 A2993 RMK A01 T01090002  RH  048%=      5-min Rain = 0
KVP1 131605Z 28011KT 11/00 A2993 RMK A01 T01090002  RH  048%=      5-min Rain = 0
KVP1 131606Z 29009KT 11/00 A2993 RMK A01 T01090004  RH  048%=      5-min Rain = 0
KVP1 131607Z 29011KT 11/01 A2993 RMK A01 T01110005  RH  048%=      5-min Rain = 0
KVP1 131608Z 28011KT 11/00 A2993 RMK A01 T01120004  RH  047%=      5-min Rain = 0
KVP1 131609Z 29010KT 11/00 A2993 RMK A01 T01130003  RH  047%=      5-min Rain = 0
KVP1 131610Z 28008KT 11/01 A2993 RMK A01 T01140006  RH  047%=      5-min Rain = 0
KVP1 131611Z 29008KT 12/01 A2993 RMK A01 T01160006  RH  047%=      5-min Rain = 0
KVP1 131612Z 29007KT 12/01 A2993 RMK A01 T01170008  RH  047%=      5-min Rain = 0
KVP1 131613Z 29008KT 12/01 A2993 RMK A01 T01190009  RH  047%=      5-min Rain = 0
KVP1 131614Z 29010KT 12/01 A2993 RMK A01 T01210006  RH  045%=      5-min Rain = 0
KVP1 131615Z 30008KT 12/01 A2993 RMK A01 T01210007  RH  046%=      5-min Rain = 0
KVP1 131616Z 30010KT 12/01 A2993 RMK A01 T01230007  RH  045%=      5-min Rain = 0
KVP1 131617Z 31011KT 12/01 A2993 RMK A01 T01230005  RH  044%=      5-min Rain = 0
KVP1 131618Z 31011KT 12/01 A2993 RMK A01 T01230005  RH  045%=      5-min Rain = 0
KVP1 131619Z 31012KT 12/01 A2993 RMK A01 T01220006  RH  045%=      5-min Rain = 0
KVP1 131620Z 30014KT 12/00 A2993 RMK A01 T01230002  RH  044%=      5-min Rain = 0
KVP1 131621Z 31012KT 12/00 A2993 RMK A01 T01230004  RH  044%=      5-min Rain = 0
KVP1 131622Z 31014KT 12/01 A2993 RMK A01 T01240006  RH  044%=      5-min Rain = 0
KVP1 131623Z 31013KT 13/00 A2993 RMK A01 T01250003  RH  043%=      5-min Rain = 0
KVP1 131624Z 30012KT 13/01 A2993 RMK A01 T01260006  RH  044%=      5-min Rain = 0
KVP1 131625Z 30013KT 13/01 A2993 RMK A01 T01280008  RH  044%=      5-min Rain = 0
KVP1 131626Z 30013KT 13/01 A2993 RMK A01 T01290005  RH  043%=      5-min Rain = 0
KVP1 131627Z 30014KT 13/00 A2993 RMK A01 T01290004  RH  042%=      5-min Rain = 0
KVP1 131628Z 29014KT 13/00 A2993 RMK A01 T01290002  RH  042%=      5-min Rain = 0
KVP1 131629Z 30014KT 13/00 A2993 RMK A01 T01290003  RH  042%=      5-min Rain = 0
KVP1 131630Z 30014KT 13/00 A2992 RMK A01 T01300003  RH  042%=      5-min Rain = 0
KVP1 131631Z 30015KT 13/00 A2992 RMK A01 T01290003  RH  042%=      5-min Rain = 0
KVP1 131632Z 30014KT 13/00 A2992 RMK A01 T01290003  RH  042%=      5-min Rain = 0
KVP1 131633Z 31014KT 13/01 A2992 RMK A01 T01290005  RH  043%=      5-min Rain = 0
KVP1 131634Z 31014KT 13/00 A2992 RMK A01 T01300004  RH  042%=      5-min Rain = 0
KVP1 131635Z 30013KT 13/00 A2992 RMK A01 T01310004  RH  042%=      5-min Rain = 0
KVP1 131636Z 30013KT 13/01 A2992 RMK A01 T01320005  RH  042%=      5-min Rain = 0
KVP1 131637Z 29012KT 13/01 A2992 RMK A01 T01340009  RH  042%=      5-min Rain = 0
KVP1 131638Z 30011KT 14/01 A2991 RMK A01 T01370010  RH  042%=      5-min Rain = 0
KVP1 131639Z 30014KT 14/01 A2991 RMK A01 T01380006  RH  040%=      5-min Rain = 0
KVP1 131640Z 30016KT 14/01 A2991 RMK A01 T01380005  RH  040%=      5-min Rain = 0
KVP1 131641Z 30013KT 14/01 A2991 RMK A01 T01380006  RH  041%=      5-min Rain = 0
KVP1 131642Z 30013KT 14/01 A2992 RMK A01 T01390009  RH  041%=      5-min Rain = 0
KVP1 131643Z 30014KT 14/01 A2992 RMK A01 T01420009  RH  040%=      5-min Rain = 0
KVP1 131644Z 30015KT 14/01 A2992 RMK A01 T01430006  RH  039%=      5-min Rain = 0
KVP1 131645Z 30012KT 14/01 A2992 RMK A01 T01430006  RH  039%=      5-min Rain = 0
KVP1 131646Z 31013KT 15/01 A2992 RMK A01 T01450009  RH  040%=      5-min Rain = 0
KVP1 131647Z 31014KT 15/01 A2992 RMK A01 T01480010  RH  039%=      5-min Rain = 0
KVP1 131648Z 31014KT 15/01 A2992 RMK A01 T01500008  RH  038%=      5-min Rain = 0
KVP1 131649Z 31015G20KT 15/01 A2992 RMK A01 T01510008  RH  038%=      5-min Rain = 0
KVP1 131650Z 31018KT 15/00 A2992 RMK A01 T01510001  RH  036%=      5-min Rain = 0
KVP1 131651Z 30017KT 15/00 A2992 RMK A01 T01500003  RH  036%=      5-min Rain = 0
KVP1 131652Z 30017KT 15/00 A2992 RMK A01 T01510002  RH  036%=      5-min Rain = 0
KVP1 131653Z 30016KT 15/00 A2992 RMK A01 T01520001  RH  036%=      5-min Rain = 0
KVP1 131654Z 31015G21KT 15/00 A2992 RMK A01 T01530003  RH  036%=      5-min Rain = 0
KVP1 131655Z 31020KT 15/00 A2992 RMK A01 T01540001  RH  035%=      5-min Rain = 0
KVP1 131656Z 31019KT 15/M00 A2992 RMK A01 T01521001  RH  035%=      5-min Rain = 0
KVP1 131657Z 31019KT 15/00 A2992 RMK A01 T01520001  RH  036%=      5-min Rain = 0
KVP1 131658Z 31017KT 15/00 A2992 RMK A01 T01520002  RH  036%=      5-min Rain = 0
KVP1 131659Z 30018KT 15/00 A2992 RMK A01 T01530002  RH  036%=      5-min Rain = 0
KVP1 131700Z 30018KT 15/00 A2992 RMK A01 T015400-0  RH  035%=      5-min Rain = 0
KVP1 131701Z 31018KT 15/00 A2992 RMK A01 T01540001  RH  035%=      5-min Rain = 0
KVP1 131702Z 30019KT 15/M00 A2992 RMK A01 T01541001  RH  035%=      5-min Rain = 0
KVP1 131703Z 31018KT 15/00 A2992 RMK A01 T01530001  RH  035%=      5-min Rain = 0
KVP1 131704Z 31017KT 15/00 A2992 RMK A01 T01540002  RH  035%=      5-min Rain = 0
KVP1 131705Z 31018G23KT 16/00 A2992 RMK A01 T01550004  RH  036%=      5-min Rain = 0
KVP1 131706Z 31019KT 16/00 A2992 RMK A01 T01560000  RH  035%=      5-min Rain = 0
KVP1 131707Z 31017KT 16/00 A2992 RMK A01 T01550001  RH  035%=      5-min Rain = 0
KVP1 131708Z 31020KT 16/00 A2992 RMK A01 T015500-0  RH  035%=      5-min Rain = 0
KVP1 131709Z 31019G24KT 16/M00 A2991 RMK A01 T01551004  RH  034%=      5-min Rain = 0
KVP1 131710Z 31019KT 16/M00 A2991 RMK A01 T01551001  RH  035%=      5-min Rain = 0
KVP1 131711Z 31018KT 16/M00 A2991 RMK A01 T01551001  RH  034%=      5-min Rain = 0
KVP1 131712Z 32018KT 16/M00 A2991 RMK A01 T01561001  RH  034%=      5-min Rain = 0
KVP1 131713Z 32015KT 16/00 A2991 RMK A01 T01570003  RH  035%=      5-min Rain = 0
KVP1 131714Z 31017KT 16/00 A2992 RMK A01 T01590004  RH  035%=      5-min Rain = 0
KVP1 131715Z 31019KT 16/M00 A2991 RMK A01 T01591004  RH  033%=      5-min Rain = 0
KVP1 131716Z 31020KT 16/M00 A2991 RMK A01 T01581003  RH  033%=      5-min Rain = 0
KVP1 131717Z 31019KT 16/M00 A2991 RMK A01 T01591004  RH  033%=      5-min Rain = 0
KVP1 131718Z 31021KT 16/M00 A2992 RMK A01 T01581003  RH  033%=      5-min Rain = 0
KVP1 131719Z 32016KT 16/M00 A2992 RMK A01 T01591003  RH  033%=      5-min Rain = 0
KVP1 131720Z 32016KT 16/00 A2992 RMK A01 T01600001  RH  034%=      5-min Rain = 0
KVP1 131721Z 32022KT 16/M00 A2992 RMK A01 T01611002  RH  033%=      5-min Rain = 0
KVP1 131722Z 32018KT 16/M01 A2992 RMK A01 T01591005  RH  033%=      5-min Rain = 0
KVP1 131723Z 32020KT 16/M00 A2991 RMK A01 T01591002  RH  033%=      5-min Rain = 0
KVP1 131724Z 32018KT 16/M00 A2991 RMK A01 T01591004  RH  033%=      5-min Rain = 0
KVP1 131725Z 32019KT 16/M00 A2991 RMK A01 T01591003  RH  033%=      5-min Rain = 0
KVP1 131726Z 33018KT 16/M00 A2991 RMK A01 T01591003  RH  033%=      5-min Rain = 0
KVP1 131727Z 32018KT 16/M00 A2991 RMK A01 T01591001  RH  034%=      5-min Rain = 0
KVP1 131728Z 32016KT 16/M00 A2991 RMK A01 T01591001  RH  034%=      5-min Rain = 0
KVP1 131729Z 32015G23KT 16/00 A2991 RMK A01 T01620004  RH  034%=      5-min Rain = 0
KVP1 131730Z 32019KT 16/M00 A2991 RMK A01 T01641002  RH  032%=      5-min Rain = 0
KVP1 131731Z 32018KT 16/M00 A2991 RMK A01 T01621003  RH  033%=      5-min Rain = 0
KVP1 131732Z 32017G22KT 16/M00 A2991 RMK A01 T01621001  RH  033%=      5-min Rain = 0
KVP1 131733Z 32017KT 16/M00 A2991 RMK A01 T01621003  RH  033%=      5-min Rain = 0
KVP1 131734Z 32018KT 16/M00 A2991 RMK A01 T01611001  RH  033%=      5-min Rain = 0
KVP1 131735Z 31019KT 16/M00 A2991 RMK A01 T01621003  RH  032%=      5-min Rain = 0
KVP1 131736Z 31019KT 16/M00 A2991 RMK A01 T01611004  RH  032%=      5-min Rain = 0
KVP1 131737Z 32018KT 16/M00 A2991 RMK A01 T01621003  RH  032%=      5-min Rain = 0
KVP1 131738Z 32017KT 16/M00 A2991 RMK A01 T01631002  RH  033%=      5-min Rain = 0
KVP1 131739Z 32018KT 16/00 A2991 RMK A01 T016400-0  RH  033%=      5-min Rain = 0
KVP1 131740Z 32018G23KT 17/M00 A2991 RMK A01 T01651001  RH  032%=      5-min Rain = 0
KVP1 131741Z 32019KT 17/M01 A2991 RMK A01 T01651005  RH  031%=      5-min Rain = 0
KVP1 131742Z 33019KT 16/M01 A2991 RMK A01 T01641005  RH  031%=      5-min Rain = 0
KVP1 131743Z 32017KT 16/M00 A2991 RMK A01 T01641002  RH  032%=      5-min Rain = 0
KVP1 131744Z 32020KT 17/M00 A2991 RMK A01 T01661001  RH  032%=      5-min Rain = 0
KVP1 131745Z 32016KT 17/M00 A2991 RMK A01 T01661003  RH  032%=      5-min Rain = 0
KVP1 131746Z 31019KT 17/M00 A2991 RMK A01 T01671003  RH  031%=      5-min Rain = 0
KVP1 131747Z 32019KT 17/M01 A2991 RMK A01 T01681005  RH  031%=      5-min Rain = 0
KVP1 131748Z 32017KT 17/M01 A2991 RMK A01 T01671005  RH  031%=      5-min Rain = 0
KVP1 131749Z 32018G23KT 17/M01 A2991 RMK A01 T01661006  RH  031%=      5-min Rain = 0
KVP1 131750Z 32018KT 17/M01 A2991 RMK A01 T01661007  RH  031%=      5-min Rain = 0
KVP1 131751Z 31016KT 17/M01 A2991 RMK A01 T01651006  RH  031%=      5-min Rain = 0
KVP1 131752Z 32015KT 17/M01 A2991 RMK A01 T01661005  RH  031%=      5-min Rain = 0
KVP1 131753Z 32015KT 17/M00 A2991 RMK A01 T01681003  RH  031%=      5-min Rain = 0
KVP1 131754Z 32019G24KT 17/M00 A2991 RMK A01 T01701003  RH  031%=      5-min Rain = 0
KVP1 131755Z 32020KT 17/M01 A2991 RMK A01 T01691007  RH  030%=      5-min Rain = 0
KVP1 131756Z 33020KT 17/M01 A2991 RMK A01 T01671008  RH  030%=      5-min Rain = 0
KVP1 131757Z 33018KT 17/M01 A2991 RMK A01 T01651009  RH  031%=      5-min Rain = 0
KVP1 131758Z 32016KT 17/M01 A299 RMK A01 T01651006  RH  031%=      5-min Rain = 0
KVP1 131759Z 33017KT 17/M01 A299 RMK A01 T01661005  RH  031%=      5-min Rain = 0
KVP1 131800Z 31016KT 17/M01 A299 RMK A01 T01681005  RH  031%=      5-min Rain = 0
KVP1 131801Z 32018KT 17/M01 A299 RMK A01 T01691006  RH  030%=      5-min Rain = 0
KVP1 131802Z 32017KT 17/M01 A299 RMK A01 T01701008  RH  030%=      5-min Rain = 0
KVP1 131803Z 33014KT 17/M01 A299 RMK A01 T01691008  RH  030%=      5-min Rain = 0
KVP1 131804Z 33014KT 17/M01 A299 RMK A01 T01691006  RH  030%=      5-min Rain = 0
KVP1 131805Z 33013KT 17/M01 A299 RMK A01 T01721005  RH  030%=      5-min Rain = 0
KVP1 131806Z 33015KT 17/M01 A299 RMK A01 T01731005  RH  030%=      5-min Rain = 0
KVP1 131807Z 33019KT 18/M01 A299 RMK A01 T01751010  RH  029%=      5-min Rain = 0
KVP1 131808Z 33019KT 17/M02 A299 RMK A01 T01731015  RH  028%=      5-min Rain = 0
KVP1 131809Z 33016KT 17/M02 A299 RMK A01 T01701016  RH  028%=      5-min Rain = 0
KVP1 131810Z 33016KT 17/M01 A299 RMK A01 T01701014  RH  028%=      5-min Rain = 0
KVP1 131811Z 33013KT 17/M02 A299 RMK A01 T01691017  RH  028%=      5-min Rain = 0
KVP1 131812Z 33016KT 17/M02 A2989 RMK A01 T01701016  RH  028%=      5-min Rain = 0
KVP1 131813Z 31015KT 17/M02 A299 RMK A01 T01711016  RH  028%=      5-min Rain = 0
KVP1 131814Z 32014KT 17/M01 A299 RMK A01 T01721014  RH  028%=      5-min Rain = 0
KVP1 131815Z 31015KT 18/M01 A2989 RMK A01 T01761012  RH  028%=      5-min Rain = 0
KVP1 131816Z 32017KT 18/M02 A2989 RMK A01 T01771016  RH  027%=      5-min Rain = 0
KVP1 131817Z 32017KT 18/M02 A2989 RMK A01 T01761018  RH  027%=      5-min Rain = 0
KVP1 131818Z 32016KT 17/M02 A2989 RMK A01 T01731020  RH  027%=      5-min Rain = 0
KVP1 131819Z 32014KT 17/M02 A2989 RMK A01 T01711019  RH  027%=      5-min Rain = 0
KVP1 131820Z 33015KT 17/M02 A2989 RMK A01 T01711016  RH  028%=      5-min Rain = 0
KVP1 131821Z 33015KT 17/M01 A2989 RMK A01 T01721013  RH  028%=      5-min Rain = 0
KVP1 131822Z 32016KT 17/M01 A2989 RMK A01 T01721013  RH  028%=      5-min Rain = 0
KVP1 131823Z 32014KT 17/M02 A2989 RMK A01 T01711015  RH  028%=      5-min Rain = 0
KVP1 131824Z 32014KT 17/M01 A2989 RMK A01 T01711011  RH  029%=      5-min Rain = 0
KVP1 131825Z 31015KT 17/M01 A2989 RMK A01 T01731012  RH  028%=      5-min Rain = 0
KVP1 131826Z 32013KT 18/M01 A2989 RMK A01 T01751012  RH  028%=      5-min Rain = 0
KVP1 131827Z 32016KT 18/M01 A2988 RMK A01 T01751011  RH  028%=      5-min Rain = 0
KVP1 131828Z 32017KT 18/M01 A2988 RMK A01 T01751014  RH  028%=      5-min Rain = 0
KVP1 131829Z 33019KT 17/M02 A2988 RMK A01 T01731016  RH  027%=      5-min Rain = 0
KVP1 131830Z 32015KT 17/M02 A2988 RMK A01 T01721017  RH  027%=      5-min Rain = 0
KVP1 131831Z 32018KT 17/M02 A2988 RMK A01 T01721017  RH  027%=      5-min Rain = 0
KVP1 131832Z 32017KT 17/M02 A2988 RMK A01 T01721020  RH  027%=      5-min Rain = 0
KVP1 131833Z 32018KT 17/M02 A2988 RMK A01 T01721020  RH  027%=      5-min Rain = 0
KVP1 131834Z 32020KT 17/M02 A2988 RMK A01 T01721020  RH  027%=      5-min Rain = 0
KVP1 131835Z 32017KT 17/M02 A2988 RMK A01 T01731022  RH  026%=      5-min Rain = 0
KVP1 131836Z 32017KT 17/M02 A2988 RMK A01 T01731019  RH  027%=      5-min Rain = 0
KVP1 131837Z 32014KT 17/M02 A2988 RMK A01 T01741018  RH  027%=      5-min Rain = 0
KVP1 131838Z 33016KT 18/M02 A2988 RMK A01 T01761016  RH  027%=      5-min Rain = 0
KVP1 131839Z 31015KT 18/M02 A2988 RMK A01 T01751019  RH  027%=      5-min Rain = 0
KVP1 131840Z 31015KT 17/M02 A2988 RMK A01 T01741019  RH  027%=      5-min Rain = 0
KVP1 131841Z 31017KT 17/M02 A2988 RMK A01 T01741020  RH  027%=      5-min Rain = 0
KVP1 131842Z 32016KT 17/M02 A2988 RMK A01 T01741019  RH  027%=      5-min Rain = 0
KVP1 131843Z 32014KT 18/M02 A2987 RMK A01 T01751018  RH  027%=      5-min Rain = 0
KVP1 131844Z 33015KT 18/M02 A2988 RMK A01 T01751017  RH  027%=      5-min Rain = 0
KVP1 131845Z 33014KT 18/M01 A2988 RMK A01 T01751014  RH  028%=      5-min Rain = 0
KVP1 131846Z 31019KT 18/M02 A2988 RMK A01 T01761015  RH  027%=      5-min Rain = 0
KVP1 131847Z 31017KT 18/M02 A2988 RMK A01 T01771019  RH  026%=      5-min Rain = 0
KVP1 131848Z 32014KT 18/M02 A2987 RMK A01 T01761018  RH  027%=      5-min Rain = 0
KVP1 131849Z 31014KT 18/M02 A2987 RMK A01 T01761016  RH  027%=      5-min Rain = 0
KVP1 131850Z 32013KT 18/M02 A2987 RMK A01 T01761017  RH  027%=      5-min Rain = 0
KVP1 131851Z 32013G18KT 18/M02 A2987 RMK A01 T01771015  RH  027%=      5-min Rain = 0
KVP1 131852Z 33016KT 18/M02 A2987 RMK A01 T01781016  RH  027%=      5-min Rain = 0
KVP1 131853Z 33016KT 18/M02 A2988 RMK A01 T01761017  RH  027%=      5-min Rain = 0
KVP1 131854Z 32015KT 18/M02 A2988 RMK A01 T01761016  RH  027%=      5-min Rain = 0
KVP1 131855Z 32017KT 18/M02 A2988 RMK A01 T01761018  RH  027%=      5-min Rain = 0
KVP1 131856Z 32016KT 18/M02 A2988 RMK A01 T01771020  RH  026%=      5-min Rain = 0
KVP1 131857Z 32016KT 18/M02 A2988 RMK A01 T01761018  RH  027%=      5-min Rain = 0
KVP1 131858Z 32013KT 18/M02 A2988 RMK A01 T01781017  RH  027%=      5-min Rain = 0
KVP1 131859Z 32017KT 18/M01 A2988 RMK A01 T01801014  RH  027%=      5-min Rain = 0
KVP1 131900Z 32017KT 18/M02 A2988 RMK A01 T01801019  RH  026%=      5-min Rain = 0
KVP1 131901Z 32017KT 18/M02 A2987 RMK A01 T01781022  RH  025%=      5-min Rain = 0
KVP1 131902Z 31014KT 18/M02 A2987 RMK A01 T01781019  RH  026%=      5-min Rain = 0
KVP1 131903Z 31014KT 18/M02 A2987 RMK A01 T01791022  RH  025%=      5-min Rain = 0
KVP1 131904Z 31019KT 18/M02 A2987 RMK A01 T01791022  RH  025%=      5-min Rain = 0
KVP1 131905Z 31017KT 18/M02 A2987 RMK A01 T01791021  RH  026%=      5-min Rain = 0
KVP1 131906Z 30016KT 18/M02 A2987 RMK A01 T01781019  RH  026%=      5-min Rain = 0
KVP1 131907Z 30014G19KT 18/M02 A2987 RMK A01 T01791020  RH  026%=      5-min Rain = 0
KVP1 131908Z 31012G17KT 18/M02 A2987 RMK A01 T01801017  RH  026%=      5-min Rain = 0
KVP1 131909Z 31013KT 18/M02 A2987 RMK A01 T01811019  RH  026%=      5-min Rain = 0
KVP1 131910Z 31016G21KT 18/M02 A2987 RMK A01 T01801023  RH  025%=      5-min Rain = 0
KVP1 131911Z 31014KT 18/M03 A2987 RMK A01 T01791026  RH  025%=      5-min Rain = 0
KVP1 131912Z 31015KT 18/M02 A2987 RMK A01 T01801022  RH  025%=      5-min Rain = 0
KVP1 131913Z 33016KT 18/M02 A2987 RMK A01 T01821018  RH  026%=      5-min Rain = 0
KVP1 131914Z 33015KT 18/M02 A2987 RMK A01 T01821021  RH  025%=      5-min Rain = 0
KVP1 131915Z 33014KT 18/M02 A2987 RMK A01 T01801020  RH  025%=      5-min Rain = 0
KVP1 131916Z 32014KT 18/M02 A2987 RMK A01 T01791020  RH  026%=      5-min Rain = 0
KVP1 131917Z 31016KT 18/M03 A2987 RMK A01 T01791026  RH  025%=      5-min Rain = 0
KVP1 131918Z 32017KT 18/M03 A2987 RMK A01 T01781025  RH  025%=      5-min Rain = 0
KVP1 131919Z 32016KT 18/M02 A2987 RMK A01 T01791024  RH  025%=      5-min Rain = 0
KVP1 131920Z 32016KT 18/M03 A2987 RMK A01 T01801026  RH  025%=      5-min Rain = 0
KVP1 131921Z 32017KT 18/M03 A2987 RMK A01 T01791025  RH  025%=      5-min Rain = 0
KVP1 131922Z 32015KT 18/M03 A2987 RMK A01 T01781025  RH  025%=      5-min Rain = 0
KVP1 131923Z 31015KT 18/M03 A2987 RMK A01 T01781027  RH  025%=      5-min Rain = 0
KVP1 131924Z 31014KT 18/M03 A2987 RMK A01 T01781027  RH  025%=      5-min Rain = 0
KVP1 131925Z 33014KT 18/M02 A2987 RMK A01 T01791021  RH  025%=      5-min Rain = 0
KVP1 131926Z 33017KT 18/M02 A2987 RMK A01 T01811019  RH  026%=      5-min Rain = 0
KVP1 131927Z 32017KT 18/M03 A2987 RMK A01 T01811025  RH  024%=      5-min Rain = 0
KVP1 131928Z 32018KT 18/M03 A2987 RMK A01 T01801028  RH  024%=      5-min Rain = 0
KVP1 131929Z 32018KT 18/M03 A2987 RMK A01 T01781029  RH  024%=      5-min Rain = 0
KVP1 131930Z 32015KT 18/M03 A2987 RMK A01 T01781027  RH  025%=      5-min Rain = 0
KVP1 131931Z 31014KT 18/M02 A2987 RMK A01 T01791023  RH  025%=      5-min Rain = 0
KVP1 131932Z 31015KT 18/M03 A2987 RMK A01 T01801026  RH  025%=      5-min Rain = 0
KVP1 131933Z 31012KT 18/M03 A2987 RMK A01 T01791025  RH  025%=      5-min Rain = 0
KVP1 131934Z 32010KT 18/M02 A2987 RMK A01 T01791023  RH  025%=      5-min Rain = 0
KVP1 131935Z 33010KT 18/M02 A2987 RMK A01 T01801021  RH  025%=      5-min Rain = 0
KVP1 131936Z 31013KT 18/M02 A2987 RMK A01 T01821019  RH  025%=      5-min Rain = 0
KVP1 131937Z 31013KT 18/M02 A2987 RMK A01 T01831023  RH  025%=      5-min Rain = 0
KVP1 131938Z 31015KT 18/M03 A2987 RMK A01 T01831027  RH  024%=      5-min Rain = 0
KVP1 131939Z 32018KT 18/M02 A2987 RMK A01 T01821024  RH  024%=      5-min Rain = 0
KVP1 131940Z 32011KT 18/M03 A2987 RMK A01 T01821025  RH  024%=      5-min Rain = 0
KVP1 131941Z 31014KT 18/M02 A2987 RMK A01 T01821022  RH  025%=      5-min Rain = 0
KVP1 131942Z 31012KT 18/M02 A2987 RMK A01 T01841021  RH  025%=      5-min Rain = 0
KVP1 131943Z 33014KT 19/M02 A2987 RMK A01 T01851022  RH  025%=      5-min Rain = 0
KVP1 131944Z 33015KT 19/M02 A2987 RMK A01 T01851021  RH  025%=      5-min Rain = 0
KVP1 131945Z 32014KT 18/M02 A2987 RMK A01 T01821024  RH  025%=      5-min Rain = 0
KVP1 131946Z 31014KT 18/M03 A2986 RMK A01 T01811025  RH  025%=      5-min Rain = 0
KVP1 131947Z 31013KT 18/M03 A2986 RMK A01 T01811025  RH  024%=      5-min Rain = 0
KVP1 131948Z 30015KT 18/M02 A2986 RMK A01 T01821024  RH  025%=      5-min Rain = 0
KVP1 131949Z 32017KT 18/M02 A2986 RMK A01 T01841023  RH  024%=      5-min Rain = 0
KVP1 131950Z 33017KT 18/M02 A2986 RMK A01 T01831023  RH  025%=      5-min Rain = 0
KVP1 131951Z 33014KT 18/M03 A2986 RMK A01 T01821025  RH  024%=      5-min Rain = 0
KVP1 131952Z 33013KT 18/M02 A2986 RMK A01 T01811020  RH  025%=      5-min Rain = 0
KVP1 131953Z 33017KT 18/M02 A2986 RMK A01 T01831021  RH  025%=      5-min Rain = 0
KVP1 131954Z 34016KT 18/M02 A2986 RMK A01 T01821024  RH  025%=      5-min Rain = 0
KVP1 131955Z 34013KT 18/M02 A2986 RMK A01 T01801021  RH  025%=      5-min Rain = 0
KVP1 131956Z 33013G18KT 18/M02 A2986 RMK A01 T01811016  RH  026%=      5-min Rain = 0
KVP1 131957Z 33015KT 18/M02 A2986 RMK A01 T01831021  RH  025%=      5-min Rain = 0
KVP1 131958Z 31015KT 18/M02 A2986 RMK A01 T01821022  RH  025%=      5-min Rain = 0
KVP1 131959Z 32015KT 18/M02 A2986 RMK A01 T01821021  RH  025%=      5-min Rain = 0
KVP1 132000Z 33013KT 18/M02 A2986 RMK A01 T01831022  RH  025%=      5-min Rain = 0
KVP1 132001Z 32013G19KT 18/M02 A2986 RMK A01 T01821020  RH  025%=      5-min Rain = 0
KVP1 132002Z 32017KT 18/M02 A2986 RMK A01 T01821022  RH  025%=      5-min Rain = 0
KVP1 132003Z 31017KT 18/M02 A2986 RMK A01 T01821023  RH  025%=      5-min Rain = 0
KVP1 132004Z 31015KT 18/M02 A2986 RMK A01 T01821024  RH  025%=      5-min Rain = 0
KVP1 132005Z 32016KT 18/M03 A2986 RMK A01 T01811025  RH  025%=      5-min Rain = 0
KVP1 132006Z 32016KT 18/M02 A2986 RMK A01 T01801022  RH  025%=      5-min Rain = 0
KVP1 132007Z 32014KT 18/M02 A2986 RMK A01 T01811021  RH  025%=      5-min Rain = 0
KVP1 132008Z 32011KT 18/M02 A2986 RMK A01 T01831020  RH  025%=      5-min Rain = 0
KVP1 132009Z 31010KT 18/M02 A2986 RMK A01 T01821023  RH  025%=      5-min Rain = 0
KVP1 132010Z 32010KT 18/M02 A2986 RMK A01 T01821023  RH  025%=      5-min Rain = 0
KVP1 132011Z 31014KT 18/M02 A2986 RMK A01 T01831021  RH  025%=      5-min Rain = 0
KVP1 132012Z 31014KT 18/M02 A2986 RMK A01 T01841023  RH  024%=      5-min Rain = 0
KVP1 132013Z 32012KT 18/M02 A2986 RMK A01 T01831023  RH  025%=      5-min Rain = 0
KVP1 132014Z 32010KT 18/M02 A2986 RMK A01 T01821023  RH  025%=      5-min Rain = 0
KVP1 132015Z 32010KT 18/M02 A2986 RMK A01 T01821021  RH  025%=      5-min Rain = 0
KVP1 132016Z 32013KT 18/M02 A2986 RMK A01 T01831016  RH  026%=      5-min Rain = 0
KVP1 132017Z 32013KT 18/M02 A2986 RMK A01 T01841019  RH  025%=      5-min Rain = 0
KVP1 132018Z 31012KT 18/M02 A2986 RMK A01 T01841022  RH  025%=      5-min Rain = 0
KVP1 132019Z 32015KT 18/M02 A2986 RMK A01 T01831021  RH  025%=      5-min Rain = 0
KVP1 132020Z 32015KT 18/M02 A2986 RMK A01 T01831021  RH  025%=      5-min Rain = 0
KVP1 132021Z 32014KT 18/M02 A2986 RMK A01 T01831020  RH  025%=      5-min Rain = 0
KVP1 132022Z 32012KT 18/M02 A2986 RMK A01 T01831020  RH  025%=      5-min Rain = 0
KVP1 132023Z 31011KT 18/M02 A2986 RMK A01 T01841022  RH  025%=      5-min Rain = 0
KVP1 132024Z 32012KT 18/M02 A2986 RMK A01 T01841021  RH  025%=      5-min Rain = 0
KVP1 132025Z 32012KT 18/M02 A2986 RMK A01 T01831019  RH  025%=      5-min Rain = 0
KVP1 132026Z 32012KT 18/M02 A2986 RMK A01 T01821023  RH  025%=      5-min Rain = 0
KVP1 132027Z 33010KT 18/M02 A2986 RMK A01 T01801020  RH  025%=      5-min Rain = 0
KVP1 132028Z 31009KT 18/M02 A2986 RMK A01 T01811022  RH  025%=      5-min Rain = 0
KVP1 132029Z 32011KT 18/M02 A2985 RMK A01 T01811023  RH  025%=      5-min Rain = 0
KVP1 132030Z 33011KT 18/M02 A2985 RMK A01 T01811021  RH  025%=      5-min Rain = 0
KVP1 132031Z 33010KT 18/M02 A2985 RMK A01 T01811023  RH  025%=      5-min Rain = 0
KVP1 132032Z 33012KT 18/M02 A2985 RMK A01 T01811019  RH  026%=      5-min Rain = 0
KVP1 132033Z 33013G18KT 18/M02 A2985 RMK A01 T01821020  RH  025%=      5-min Rain = 0
KVP1 132034Z 34014G19KT 18/M02 A2985 RMK A01 T01831018  RH  026%=      5-min Rain = 0
KVP1 132035Z 34015KT 18/M02 A2985 RMK A01 T01821018  RH  026%=      5-min Rain = 0
KVP1 132036Z 35013KT 18/M02 A2985 RMK A01 T01811020  RH  025%=      5-min Rain = 0
KVP1 132037Z 34014KT 18/M02 A2985 RMK A01 T01811020  RH  026%=      5-min Rain = 0
KVP1 132038Z 34012KT 18/M02 A2985 RMK A01 T01811019  RH  026%=      5-min Rain = 0
KVP1 132039Z 31013KT 18/M02 A2985 RMK A01 T01821016  RH  026%=      5-min Rain = 0
KVP1 132040Z 31012KT 18/M02 A2985 RMK A01 T01841020  RH  025%=      5-min Rain = 0
KVP1 132041Z 28010KT 18/M02 A2985 RMK A01 T01841022  RH  025%=      5-min Rain = 0
KVP1 132042Z 29010KT 18/M03 A2985 RMK A01 T01831025  RH  024%=      5-min Rain = 0
KVP1 132043Z 29009KT 18/M02 A2985 RMK A01 T01821024  RH  025%=      5-min Rain = 0
KVP1 132044Z 29009KT 18/M02 A2985 RMK A01 T01821024  RH  025%=      5-min Rain = 0
KVP1 132045Z 28009KT 18/M02 A2985 RMK A01 T01821024  RH  025%=      5-min Rain = 0
KVP1 132046Z 31010KT 18/M02 A2985 RMK A01 T01831023  RH  025%=      5-min Rain = 0
KVP1 132047Z 33011KT 18/M02 A2985 RMK A01 T01841020  RH  025%=      5-min Rain = 0
KVP1 132048Z 33014G19KT 18/M02 A2985 RMK A01 T01841016  RH  026%=      5-min Rain = 0
KVP1 132049Z 32014KT 18/M02 A2985 RMK A01 T01841019  RH  025%=      5-min Rain = 0
KVP1 132050Z 31014KT 18/M02 A2985 RMK A01 T01831021  RH  025%=      5-min Rain = 0
KVP1 132051Z 31010KT 18/M02 A2986 RMK A01 T01821023  RH  025%=      5-min Rain = 0
KVP1 132052Z 32008KT 18/M02 A2986 RMK A01 T01811023  RH  025%=      5-min Rain = 0
KVP1 132053Z 32006KT 18/M02 A2986 RMK A01 T01811022  RH  025%=      5-min Rain = 0
KVP1 132054Z 33010KT 18/M02 A2986 RMK A01 T01821017  RH  026%=      5-min Rain = 0
KVP1 132055Z 33008KT 18/M01 A2986 RMK A01 T01841013  RH  026%=      5-min Rain = 0
KVP1 132056Z 31010KT 19/M01 A2986 RMK A01 T01851014  RH  026%=      5-min Rain = 0
KVP1 132057Z 30009KT 19/M02 A2986 RMK A01 T01861020  RH  025%=      5-min Rain = 0
KVP1 132058Z 30008KT 19/M02 A2985 RMK A01 T01851021  RH  025%=      5-min Rain = 0
KVP1 132059Z 32009KT 19/M02 A2985 RMK A01 T01851018  RH  025%=      5-min Rain = 0
KVP1 132100Z 32013KT 19/M02 A2985 RMK A01 T01861015  RH  026%=      5-min Rain = 0
KVP1 132101Z 33012KT 19/M02 A2985 RMK A01 T01851019  RH  025%=      5-min Rain = 0
KVP1 132102Z 33009KT 18/M02 A2985 RMK A01 T01831019  RH  025%=      5-min Rain = 0
KVP1 132103Z 34008KT 18/M02 A2985 RMK A01 T01821017  RH  026%=      5-min Rain = 0
KVP1 132104Z 32012KT 18/M02 A2985 RMK A01 T01821019  RH  025%=      5-min Rain = 0
KVP1 132105Z 32012KT 18/M02 A2985 RMK A01 T01821021  RH  025%=      5-min Rain = 0
KVP1 132106Z 32009KT 18/M02 A2985 RMK A01 T01821022  RH  025%=      5-min Rain = 0
KVP1 132107Z 31010KT 18/M02 A2985 RMK A01 T01821023  RH  025%=      5-min Rain = 0
KVP1 132108Z 30010KT 18/M02 A2985 RMK A01 T01821023  RH  025%=      5-min Rain = 0
KVP1 132109Z 30009KT 18/M02 A2985 RMK A01 T01831024  RH  024%=      5-min Rain = 0
KVP1 132110Z 30009KT 18/M02 A2985 RMK A01 T01831022  RH  025%=      5-min Rain = 0
KVP1 132111Z 30010KT 18/M02 A2985 RMK A01 T01841022  RH  025%=      5-min Rain = 0
KVP1 132112Z 31009KT 19/M02 A2985 RMK A01 T01861020  RH  025%=      5-min Rain = 0
KVP1 132113Z 32011KT 19/M02 A2985 RMK A01 T01861019  RH  025%=      5-min Rain = 0
KVP1 132114Z 31009KT 19/M02 A2985 RMK A01 T01851019  RH  025%=      5-min Rain = 0
KVP1 132115Z 31007KT 18/M02 A2985 RMK A01 T01841022  RH  025%=      5-min Rain = 0
KVP1 132116Z 32008KT 18/M02 A2985 RMK A01 T01831020  RH  025%=      5-min Rain = 0
KVP1 132117Z 33009KT 19/M02 A2985 RMK A01 T01851015  RH  026%=      5-min Rain = 0
KVP1 132118Z 32012KT 19/M02 A2985 RMK A01 T01851017  RH  025%=      5-min Rain = 0
KVP1 132119Z 31011KT 19/M02 A2985 RMK A01 T01851022  RH  025%=      5-min Rain = 0
KVP1 132120Z 32013KT 18/M02 A2985 RMK A01 T01841022  RH  025%=      5-min Rain = 0
KVP1 132121Z 32009KT 18/M02 A2985 RMK A01 T01831020  RH  025%=      5-min Rain = 0
KVP1 132122Z 33009KT 18/M02 A2985 RMK A01 T01831021  RH  025%=      5-min Rain = 0
KVP1 132123Z 32009KT 18/M02 A2985 RMK A01 T01831022  RH  025%=      5-min Rain = 0
KVP1 132124Z 31009KT 18/M02 A2985 RMK A01 T01821021  RH  025%=      5-min Rain = 0
KVP1 132125Z 29009KT 18/M02 A2985 RMK A01 T01841020  RH  025%=      5-min Rain = 0
KVP1 132126Z 30007KT 19/M02 A2985 RMK A01 T01861021  RH  025%=      5-min Rain = 0
KVP1 132127Z 31008KT 19/M02 A2985 RMK A01 T01861020  RH  025%=      5-min Rain = 0
KVP1 132128Z 31012KT 19/M02 A2985 RMK A01 T01861018  RH  025%=      5-min Rain = 0
KVP1 132129Z 30012KT 19/M02 A2985 RMK A01 T01861021  RH  025%=      5-min Rain = 0
KVP1 132130Z 31011KT 18/M02 A2985 RMK A01 T01841023  RH  024%=      5-min Rain = 0
KVP1 132131Z 33009KT 18/M02 A2985 RMK A01 T01841020  RH  025%=      5-min Rain = 0
KVP1 132132Z 34008KT 18/M02 A2985 RMK A01 T01841018  RH  025%=      5-min Rain = 0
KVP1 132133Z 33008KT 18/M02 A2985 RMK A01 T01831019  RH  025%=      5-min Rain = 0
KVP1 132134Z 31007KT 18/M02 A2985 RMK A01 T01821018  RH  026%=      5-min Rain = 0
KVP1 132135Z 32007KT 18/M02 A2985 RMK A01 T01821018  RH  026%=      5-min Rain = 0
KVP1 132136Z 30007KT 18/M02 A2985 RMK A01 T01841017  RH  025%=      5-min Rain = 0
KVP1 132137Z 30006KT 19/M02 A2985 RMK A01 T01851021  RH  025%=      5-min Rain = 0
KVP1 132138Z 32007KT 18/M02 A2985 RMK A01 T01841023  RH  024%=      5-min Rain = 0
KVP1 132139Z 32012KT 18/M02 A2985 RMK A01 T01841019  RH  025%=      5-min Rain = 0
KVP1 132140Z 33011KT 18/M02 A2985 RMK A01 T01831020  RH  025%=      5-min Rain = 0
KVP1 132141Z 32010KT 18/M02 A2985 RMK A01 T01821019  RH  026%=      5-min Rain = 0
KVP1 132142Z 32010KT 18/M02 A2985 RMK A01 T01811020  RH  025%=      5-min Rain = 0
KVP1 132143Z 32011KT 18/M02 A2985 RMK A01 T01811021  RH  025%=      5-min Rain = 0
KVP1 132144Z 31009KT 18/M02 A2985 RMK A01 T01811022  RH  025%=      5-min Rain = 0
KVP1 132145Z 31006KT 18/M02 A2985 RMK A01 T01801023  RH  025%=      5-min Rain = 0
KVP1 132146Z 32007KT 18/M02 A2985 RMK A01 T01801024  RH  025%=      5-min Rain = 0
KVP1 132147Z 34008KT 18/M02 A2985 RMK A01 T01801019  RH  026%=      5-min Rain = 0
KVP1 132148Z 36008KT 18/M02 A2985 RMK A01 T01801020  RH  026%=      5-min Rain = 0
KVP1 132149Z 36008KT 18/M02 A2985 RMK A01 T01791019  RH  026%=      5-min Rain = 0
KVP1 132150Z 35009KT 18/M02 A2985 RMK A01 T01791019  RH  026%=      5-min Rain = 0
KVP1 132151Z 35010KT 18/M02 A2985 RMK A01 T01791019  RH  026%=      5-min Rain = 0
KVP1 132152Z 00011KT 18/M02 A2985 RMK A01 T01791021  RH  026%=      5-min Rain = 0
KVP1 132153Z 34008KT 18/M02 A2985 RMK A01 T01781022  RH  026%=      5-min Rain = 0
KVP1 132154Z 34009KT 18/M02 A2985 RMK A01 T01771019  RH  026%=      5-min Rain = 0
KVP1 132155Z 34008KT 18/M02 A2985 RMK A01 T01781018  RH  026%=      5-min Rain = 0
KVP1 132156Z 34007KT 18/M02 A2985 RMK A01 T01781016  RH  027%=      5-min Rain = 0
KVP1 132157Z 33007KT 18/M02 A2985 RMK A01 T01791017  RH  026%=      5-min Rain = 0
KVP1 132158Z 35007KT 18/M02 A2985 RMK A01 T01791018  RH  026%=      5-min Rain = 0
KVP1 132159Z 35007KT 18/M02 A2985 RMK A01 T01791021  RH  026%=      5-min Rain = 0
KVP1 132200Z 35008KT 18/M02 A2985 RMK A01 T01791021  RH  026%=      5-min Rain = 0
KVP1 132201Z 36007KT 18/M02 A2985 RMK A01 T01781022  RH  025%=      5-min Rain = 0
KVP1 132202Z 35005KT 18/M02 A2985 RMK A01 T01781022  RH  026%=      5-min Rain = 0
KVP1 132203Z 35006KT 18/M02 A2985 RMK A01 T01781022  RH  026%=      5-min Rain = 0
KVP1 132204Z 35007KT 18/M02 A2985 RMK A01 T01781021  RH  026%=      5-min Rain = 0
KVP1 132205Z 34006KT 18/M02 A2985 RMK A01 T01781016  RH  027%=      5-min Rain = 0
KVP1 132206Z 34006KT 18/M01 A2985 RMK A01 T01781014  RH  027%=      5-min Rain = 0
KVP1 132207Z 34007KT 18/M02 A2985 RMK A01 T01791016  RH  027%=      5-min Rain = 0
KVP1 132208Z 35007KT 18/M02 A2985 RMK A01 T01791016  RH  027%=      5-min Rain = 0
KVP1 132209Z 34008KT 18/M02 A2985 RMK A01 T01791016  RH  027%=      5-min Rain = 0
KVP1 132210Z 34008KT 18/M02 A2985 RMK A01 T01781018  RH  026%=      5-min Rain = 0
KVP1 132211Z 35007KT 18/M02 A2985 RMK A01 T01781015  RH  027%=      5-min Rain = 0
KVP1 132212Z 34006KT 18/M02 A2985 RMK A01 T01781020  RH  026%=      5-min Rain = 0
KVP1 132213Z 33007KT 18/M02 A2985 RMK A01 T01771022  RH  026%=      5-min Rain = 0
KVP1 132214Z 36005KT 18/M02 A2985 RMK A01 T01771020  RH  026%=      5-min Rain = 0
KVP1 132215Z 00007KT 18/M02 A2985 RMK A01 T01771023  RH  025%=      5-min Rain = 0
KVP1 132216Z 35007KT 18/M03 A2985 RMK A01 T01771025  RH  025%=      5-min Rain = 0
KVP1 132217Z 01004KT 18/M02 A2985 RMK A01 T01761024  RH  026%=      5-min Rain = 0
KVP1 132218Z 36005KT 18/M02 A2985 RMK A01 T01761021  RH  026%=      5-min Rain = 0
KVP1 132219Z 36006KT 18/M02 A2985 RMK A01 T01761024  RH  025%=      5-min Rain = 0
KVP1 132220Z 35005KT 18/M03 A2985 RMK A01 T01761025  RH  025%=      5-min Rain = 0
KVP1 132221Z 35004KT 18/M02 A2985 RMK A01 T01751022  RH  026%=      5-min Rain = 0
KVP1 132222Z 36005KT 18/M02 A2985 RMK A01 T01751023  RH  026%=      5-min Rain = 0
KVP1 132223Z 36005KT 18/M02 A2985 RMK A01 T01751024  RH  026%=      5-min Rain = 0
KVP1 132224Z 01004KT 18/M02 A2985 RMK A01 T01751023  RH  026%=      5-min Rain = 0
KVP1 132225Z 01005KT 18/M02 A2985 RMK A01 T01751021  RH  026%=      5-min Rain = 0
KVP1 132226Z 35004KT 18/M02 A2985 RMK A01 T01751022  RH  026%=      5-min Rain = 0
KVP1 132227Z 00004KT 18/M02 A2985 RMK A01 T01751023  RH  026%=      5-min Rain = 0
KVP1 132228Z 01005KT 18/M02 A2985 RMK A01 T01751020  RH  026%=      5-min Rain = 0
KVP1 132229Z 35005KT 18/M02 A2985 RMK A01 T01751022  RH  026%=      5-min Rain = 0
KVP1 132230Z 35005KT 18/M02 A2985 RMK A01 T01751022  RH  026%=      5-min Rain = 0
KVP1 132231Z 35004KT 18/M02 A2985 RMK A01 T01751020  RH  026%=      5-min Rain = 0
KVP1 132232Z 00003KT 17/M02 A2985 RMK A01 T01741016  RH  027%=      5-min Rain = 0
KVP1 132233Z 01005KT 18/M02 A2985 RMK A01 T01751020  RH  027%=      5-min Rain = 0
KVP1 132234Z 36005KT 18/M02 A2986 RMK A01 T01751021  RH  026%=      5-min Rain = 0
KVP1 132235Z 35005KT 18/M02 A2986 RMK A01 T01751020  RH  026%=      5-min Rain = 0
KVP1 132236Z 00005KT 17/M02 A2986 RMK A01 T01741020  RH  027%=      5-min Rain = 0
KVP1 132237Z 35004KT 17/M02 A2986 RMK A01 T01741018  RH  027%=      5-min Rain = 0
KVP1 132238Z 35005KT 17/M02 A2986 RMK A01 T01741016  RH  027%=      5-min Rain = 0
KVP1 132239Z 36005KT 17/M02 A2986 RMK A01 T01731020  RH  027%=      5-min Rain = 0
KVP1 132240Z 35004KT 17/M02 A2986 RMK A01 T01731021  RH  027%=      5-min Rain = 0
KVP1 132241Z 35005KT 17/M02 A2987 RMK A01 T01721019  RH  027%=      5-min Rain = 0
KVP1 132242Z 36004KT 17/M02 A2987 RMK A01 T01721021  RH  027%=      5-min Rain = 0
KVP1 132243Z 01004KT 17/M02 A2987 RMK A01 T01721018  RH  027%=      5-min Rain = 0
KVP1 132244Z 00004KT 17/M02 A2987 RMK A01 T01721018  RH  027%=      5-min Rain = 0
KVP1 132245Z 36004KT 17/M02 A2987 RMK A01 T01711016  RH  028%=      5-min Rain = 0
KVP1 132246Z 00005KT 17/M02 A2987 RMK A01 T01711017  RH  028%=      5-min Rain = 0
KVP1 132247Z 00004KT 17/M02 A2987 RMK A01 T01701019  RH  027%=      5-min Rain = 0
KVP1 132248Z 00004KT 17/M02 A2987 RMK A01 T01701019  RH  027%=      5-min Rain = 0
KVP1 132249Z 36004KT 17/M02 A2987 RMK A01 T01701018  RH  028%=      5-min Rain = 0
KVP1 132250Z 01005KT 17/M02 A2987 RMK A01 T01691018  RH  028%=      5-min Rain = 0
KVP1 132251Z 02004KT 17/M02 A2987 RMK A01 T01691018  RH  028%=      5-min Rain = 0
KVP1 132252Z 01003KT 17/M02 A2987 RMK A01 T01681018  RH  028%=      5-min Rain = 0
KVP1 132253Z 02003KT 17/M02 A2986 RMK A01 T01681019  RH  028%=      5-min Rain = 0
KVP1 132254Z 02003KT 17/M02 A2986 RMK A01 T01671020  RH  028%=      5-min Rain = 0
KVP1 132255Z 02004KT 17/M02 A2986 RMK A01 T01671020  RH  028%=      5-min Rain = 0
KVP1 132256Z 02004KT 17/M02 A2986 RMK A01 T01651022  RH  028%=      5-min Rain = 0
KVP1 132257Z 02004KT 16/M02 A2986 RMK A01 T01641022  RH  028%=      5-min Rain = 0
KVP1 132258Z 02005KT 16/M02 A2986 RMK A01 T01631023  RH  028%=      5-min Rain = 0
KVP1 132259Z 03004KT 16/M02 A2986 RMK A01 T01621023  RH  028%=      5-min Rain = 0
KVP1 132300Z 03004KT 16/M02 A2986 RMK A01 T01611023  RH  028%=      5-min Rain = 0
KVP1 132301Z 03004KT 16/M02 A2986 RMK A01 T01591023  RH  029%=      5-min Rain = 0
KVP1 132302Z 03004KT 16/M02 A2986 RMK A01 T01591023  RH  029%=      5-min Rain = 0
KVP1 132303Z 03004KT 16/M02 A2986 RMK A01 T01571023  RH  029%=      5-min Rain = 0
KVP1 132304Z 03004KT 16/M02 A2986 RMK A01 T01571023  RH  029%=      5-min Rain = 0
KVP1 132305Z 03004KT 16/M02 A2986 RMK A01 T01561024  RH  029%=      5-min Rain = 0
KVP1 132306Z 03004KT 16/M02 A2986 RMK A01 T01551024  RH  029%=      5-min Rain = 0
KVP1 132307Z 03004KT 15/M02 A2985 RMK A01 T01541024  RH  029%=      5-min Rain = 0
KVP1 132308Z 03004KT 15/M02 A2985 RMK A01 T01531024  RH  029%=      5-min Rain = 0
KVP1 132309Z 03004KT 15/M02 A2985 RMK A01 T01531024  RH  030%=      5-min Rain = 0
KVP1 132310Z 04004KT 15/M02 A2985 RMK A01 T01521024  RH  030%=      5-min Rain = 0
KVP1 132311Z 04004KT 15/M02 A2985 RMK A01 T01521024  RH  030%=      5-min Rain = 0
KVP1 132312Z 04004KT 15/M02 A2985 RMK A01 T01511024  RH  030%=      5-min Rain = 0
KVP1 132313Z 04005KT 15/M02 A2985 RMK A01 T01501024  RH  030%=      5-min Rain = 0
KVP1 132314Z 03004KT 15/M02 A2985 RMK A01 T01491024  RH  030%=      5-min Rain = 0
KVP1 132315Z 03005KT 15/M03 A2986 RMK A01 T01471025  RH  030%=      5-min Rain = 0
KVP1 132316Z 03004KT 15/M03 A2986 RMK A01 T01471026  RH  030%=      5-min Rain = 0
KVP1 132317Z 03004KT 15/M03 A2986 RMK A01 T01471025  RH  030%=      5-min Rain = 0
KVP1 132318Z 03004KT 15/M03 A2986 RMK A01 T01471025  RH  030%=      5-min Rain = 0
KVP1 132319Z 04004KT 15/M03 A2986 RMK A01 T01471025  RH  031%=      5-min Rain = 0
KVP1 132320Z 04004KT 15/M03 A2986 RMK A01 T01461025  RH  031%=      5-min Rain = 0
KVP1 132321Z 04005KT 15/M03 A2986 RMK A01 T01451025  RH  031%=      5-min Rain = 0
KVP1 132322Z 04005KT 14/M02 A2986 RMK A01 T01441024  RH  031%=      5-min Rain = 0
KVP1 132323Z 04005KT 14/M02 A2986 RMK A01 T01431024  RH  031%=      5-min Rain = 0
KVP1 132324Z 04005KT 14/M03 A2986 RMK A01 T01421025  RH  031%=      5-min Rain = 0
KVP1 132325Z 04005KT 14/M03 A2986 RMK A01 T01411025  RH  032%=      5-min Rain = 0
KVP1 132326Z 05005KT 14/M03 A2986 RMK A01 T01401025  RH  032%=      5-min Rain = 0
KVP1 132327Z 05005KT 14/M02 A2986 RMK A01 T01401024  RH  032%=      5-min Rain = 0
KVP1 132328Z 05005KT 14/M03 A2986 RMK A01 T01391025  RH  032%=      5-min Rain = 0
KVP1 132329Z 05005KT 14/M02 A2986 RMK A01 T01381024  RH  032%=      5-min Rain = 0
KVP1 132330Z 05005KT 14/M02 A2986 RMK A01 T01361024  RH  033%=      5-min Rain = 0
KVP1 132331Z 05005KT 14/M02 A2986 RMK A01 T01351024  RH  033%=      5-min Rain = 0
KVP1 132332Z 05005KT 13/M02 A2986 RMK A01 T01331024  RH  033%=      5-min Rain = 0
KVP1 132333Z 05005KT 13/M02 A2986 RMK A01 T01331024  RH  034%=      5-min Rain = 0
KVP1 132334Z 05005KT 13/M02 A2986 RMK A01 T01331024  RH  034%=      5-min Rain = 0
KVP1 132335Z 05005KT 13/M02 A2986 RMK A01 T01321024  RH  034%=      5-min Rain = 0
KVP1 132336Z 05005KT 13/M02 A2986 RMK A01 T01301024  RH  034%=      5-min Rain = 0
KVP1 132337Z 04006KT 13/M02 A2987 RMK A01 T01301023  RH  034%=      5-min Rain = 0
KVP1 132338Z 04006KT 13/M02 A2987 RMK A01 T01301023  RH  035%=      5-min Rain = 0
KVP1 132339Z 04006KT 13/M02 A2987 RMK A01 T01291023  RH  035%=      5-min Rain = 0
KVP1 132340Z 04006KT 13/M02 A2987 RMK A01 T01281023  RH  035%=      5-min Rain = 0
KVP1 132341Z 05006KT 13/M02 A2987 RMK A01 T01271023  RH  035%=      5-min Rain = 0
KVP1 132342Z 05006KT 13/M02 A2987 RMK A01 T01251024  RH  035%=      5-min Rain = 0
KVP1 132343Z 05006KT 13/M02 A2987 RMK A01 T01251023  RH  036%=      5-min Rain = 0
KVP1 132344Z 05006KT 12/M02 A2987 RMK A01 T01241022  RH  036%=      5-min Rain = 0
KVP1 132345Z 05006KT 12/M02 A2987 RMK A01 T01221022  RH  037%=      5-min Rain = 0
KVP1 132346Z 05006KT 12/M02 A2987 RMK A01 T01211022  RH  037%=      5-min Rain = 0
KVP1 132347Z 05006KT 12/M02 A2987 RMK A01 T01201022  RH  037%=      5-min Rain = 0
KVP1 132348Z 05006KT 12/M02 A2987 RMK A01 T01201022  RH  037%=      5-min Rain = 0
KVP1 132349Z 05006KT 12/M02 A2988 RMK A01 T01201022  RH  037%=      5-min Rain = 0
KVP1 132350Z 04006KT 12/M02 A2988 RMK A01 T01201022  RH  037%=      5-min Rain = 0
KVP1 132351Z 05006KT 12/M02 A2988 RMK A01 T01191022  RH  037%=      5-min Rain = 0
KVP1 132352Z 05006KT 12/M02 A2988 RMK A01 T01191022  RH  037%=      5-min Rain = 0
KVP1 132353Z 05006KT 12/M02 A2988 RMK A01 T01191022  RH  037%=      5-min Rain = 0
KVP1 132354Z 05007KT 12/M02 A2988 RMK A01 T01191022  RH  037%=      5-min Rain = 0
KVP1 132355Z 05007KT 12/M02 A2988 RMK A01 T01171022  RH  038%=      5-min Rain = 0
KVP1 132356Z 05007KT 12/M02 A2988 RMK A01 T01171022  RH  038%=      5-min Rain = 0
KVP1 132357Z 05007KT 12/M02 A2988 RMK A01 T01171021  RH  038%=      5-min Rain = 0
KVP1 132358Z 06008KT 12/M02 A2988 RMK A01 T01161022  RH  038%=      5-min Rain = 0
KVP1 132359Z 06008KT 12/M02 A2988 RMK A01 T01161021  RH  038%=      5-min Rain = 0
KVP1 140000Z 05008KT 12/M02 A2988 RMK A01 T01151021  RH  039%=      5-min Rain = 0
KVP1 140001Z 05007KT 11/M02 A2988 RMK A01 T01141021  RH  039%=      5-min Rain = 0
KVP1 140002Z 06008KT 11/M02 A2988 RMK A01 T01121023  RH  039%=      5-min Rain = 0
KVP1 140003Z 06007KT 11/M02 A2988 RMK A01 T01091023  RH  040%=      5-min Rain = 0
KVP1 140004Z 05008KT 11/M02 A2988 RMK A01 T01071024  RH  040%=      5-min Rain = 0
KVP1 140005Z 05008KT 11/M02 A2988 RMK A01 T01061024  RH  040%=      5-min Rain = 0
KVP1 140006Z 05007KT 11/M02 A2988 RMK A01 T01071023  RH  040%=      5-min Rain = 0
KVP1 140007Z 06007KT 11/M02 A2988 RMK A01 T01081023  RH  040%=      5-min Rain = 0
KVP1 140008Z 06007KT 11/M02 A2988 RMK A01 T01081023  RH  040%=      5-min Rain = 0
KVP1 140009Z 06007KT 11/M03 A2988 RMK A01 T01051025  RH  040%=      5-min Rain = 0
KVP1 140010Z 06007KT 10/M03 A2988 RMK A01 T01011027  RH  041%=      5-min Rain = 0
KVP1 140011Z 06006KT 10/M03 A2988 RMK A01 T00961027  RH  042%=      5-min Rain = 0
KVP1 140012Z 06007KT 09/M03 A2988 RMK A01 T00931027  RH  043%=      5-min Rain = 0
KVP1 140013Z 07007KT 09/M03 A2988 RMK A01 T00921027  RH  043%=      5-min Rain = 0
KVP1 140014Z 06007KT 09/M03 A2988 RMK A01 T00911026  RH  044%=      5-min Rain = 0
KVP1 140015Z 06007KT 09/M03 A2989 RMK A01 T00911026  RH  044%=      5-min Rain = 0
KVP1 140016Z 06007KT 09/M03 A2989 RMK A01 T00921026  RH  043%=      5-min Rain = 0
KVP1 140017Z 06007KT 09/M03 A2989 RMK A01 T00921027  RH  043%=      5-min Rain = 0
KVP1 140018Z 06007KT 09/M03 A2989 RMK A01 T00921028  RH  043%=      5-min Rain = 0
KVP1 140019Z 06007KT 09/M03 A2989 RMK A01 T00921029  RH  043%=      5-min Rain = 0
KVP1 140020Z 05007KT 09/M03 A2989 RMK A01 T00921029  RH  043%=      5-min Rain = 0
KVP1 140021Z 05007KT 09/M03 A2989 RMK A01 T00931028  RH  043%=      5-min Rain = 0
KVP1 140022Z 05007KT 09/M03 A2989 RMK A01 T00941028  RH  042%=      5-min Rain = 0
KVP1 140023Z 05007KT 09/M03 A2989 RMK A01 T00941028  RH  042%=      5-min Rain = 0
KVP1 140024Z 05007KT 09/M03 A2989 RMK A01 T00941028  RH  042%=      5-min Rain = 0
KVP1 140025Z 05007KT 09/M03 A2989 RMK A01 T00941029  RH  042%=      5-min Rain = 0
KVP1 140026Z 05007KT 09/M03 A2989 RMK A01 T00921029  RH  042%=      5-min Rain = 0
KVP1 140027Z 05008KT 09/M03 A2989 RMK A01 T00921029  RH  043%=      5-min Rain = 0
KVP1 140028Z 05009KT 09/M03 A2989 RMK A01 T00921029  RH  043%=      5-min Rain = 0
KVP1 140029Z 05009KT 09/M03 A2989 RMK A01 T00931028  RH  043%=      5-min Rain = 0
KVP1 140030Z 05009KT 09/M03 A2989 RMK A01 T00941028  RH  042%=      5-min Rain = 0
KVP1 140031Z 05009KT 10/M03 A2989 RMK A01 T00951028  RH  042%=      5-min Rain = 0
KVP1 140032Z 05009KT 10/M03 A2989 RMK A01 T00971027  RH  042%=      5-min Rain = 0
KVP1 140033Z 05008KT 10/M03 A2988 RMK A01 T00991027  RH  041%=      5-min Rain = 0
KVP1 140034Z 05008KT 10/M03 A2988 RMK A01 T01001027  RH  041%=      5-min Rain = 0
KVP1 140035Z 05008KT 10/M03 A2988 RMK A01 T01001028  RH  041%=      5-min Rain = 0
KVP1 140036Z 05008KT 10/M03 A2988 RMK A01 T01011028  RH  040%=      5-min Rain = 0
KVP1 140037Z 05008KT 10/M03 A2988 RMK A01 T01001028  RH  040%=      5-min Rain = 0
KVP1 140038Z 05007KT 10/M03 A2988 RMK A01 T01001028  RH  040%=      5-min Rain = 0
KVP1 140039Z 05007KT 10/M03 A2988 RMK A01 T00991029  RH  041%=      5-min Rain = 0
KVP1 140040Z 05007KT 10/M03 A2988 RMK A01 T00971030  RH  041%=      5-min Rain = 0
KVP1 140041Z 05008KT 10/M03 A2988 RMK A01 T00951030  RH  041%=      5-min Rain = 0
KVP1 140042Z 05007KT 09/M03 A2988 RMK A01 T00931031  RH  041%=      5-min Rain = 0
KVP1 140043Z 06008KT 09/M03 A2987 RMK A01 T00921031  RH  042%=      5-min Rain = 0
KVP1 140044Z 06008KT 09/M03 A2987 RMK A01 T00921031  RH  042%=      5-min Rain = 0
KVP1 140045Z 06007KT 09/M03 A2987 RMK A01 T00911031  RH  042%=      5-min Rain = 0
KVP1 140046Z 06006KT 09/M03 A2988 RMK A01 T00911031  RH  042%=      5-min Rain = 0
KVP1 140047Z 06006KT 09/M03 A2988 RMK A01 T00921030  RH  042%=      5-min Rain = 0
KVP1 140048Z 06006KT 09/M03 A2988 RMK A01 T00941029  RH  042%=      5-min Rain = 0
KVP1 140049Z 06005KT 10/M03 A2988 RMK A01 T00951030  RH  041%=      5-min Rain = 0
KVP1 140050Z 06005KT 10/M03 A2988 RMK A01 T00951030  RH  041%=      5-min Rain = 0
KVP1 140051Z 06005KT 10/M03 A2988 RMK A01 T00951030  RH  041%=      5-min Rain = 0
KVP1 140052Z 06005KT 09/M03 A2988 RMK A01 T00941031  RH  041%=      5-min Rain = 0
KVP1 140053Z 06006KT 09/M03 A2988 RMK A01 T00921032  RH  042%=      5-min Rain = 0
KVP1 140054Z 06006KT 09/M03 A2988 RMK A01 T00901032  RH  042%=      5-min Rain = 0
KVP1 140055Z 06006KT 09/M03 A2988 RMK A01 T00901031  RH  042%=      5-min Rain = 0
KVP1 140056Z 06006KT 09/M03 A2988 RMK A01 T00891032  RH  043%=      5-min Rain = 0
KVP1 140057Z 07006KT 09/M03 A2988 RMK A01 T00891032  RH  043%=      5-min Rain = 0
KVP1 140058Z 07006KT 09/M03 A2988 RMK A01 T00891031  RH  043%=      5-min Rain = 0
KVP1 140059Z 07006KT 09/M03 A2988 RMK A01 T00901031  RH  042%=      5-min Rain = 0
KVP1 140100Z 07006KT 09/M03 A2988 RMK A01 T00921031  RH  042%=      5-min Rain = 0
KVP1 140101Z 07006KT 09/M03 A2989 RMK A01 T00941030  RH  042%=      5-min Rain = 0
KVP1 140102Z 07006KT 10/M03 A2989 RMK A01 T00951031  RH  041%=      5-min Rain = 0
KVP1 140103Z 06006KT 10/M03 A2989 RMK A01 T00971030  RH  041%=      5-min Rain = 0
KVP1 140104Z 06007KT 10/M03 A2989 RMK A01 T00991030  RH  040%=      5-min Rain = 0
KVP1 140105Z 06007KT 10/M03 A2989 RMK A01 T01001030  RH  040%=      5-min Rain = 0
KVP1 140106Z 05006KT 10/M03 A2989 RMK A01 T01001030  RH  040%=      5-min Rain = 0
KVP1 140107Z 06006KT 10/M03 A2989 RMK A01 T00991030  RH  040%=      5-min Rain = 0
KVP1 140108Z 06006KT 10/M03 A2989 RMK A01 T00981030  RH  041%=      5-min Rain = 0
KVP1 140109Z 06006KT 10/M03 A2989 RMK A01 T00981029  RH  041%=      5-min Rain = 0
KVP1 140110Z 05006KT 10/M03 A2989 RMK A01 T00981029  RH  041%=      5-min Rain = 0
KVP1 140111Z 06007KT 10/M03 A2989 RMK A01 T00971030  RH  041%=      5-min Rain = 0
KVP1 140112Z 06007KT 10/M03 A2989 RMK A01 T00961030  RH  041%=      5-min Rain = 0
KVP1 140113Z 06007KT 10/M03 A2989 RMK A01 T00951030  RH  041%=      5-min Rain = 0
KVP1 140114Z 06007KT 10/M03 A2989 RMK A01 T00951030  RH  041%=      5-min Rain = 0
KVP1 140115Z 06006KT 09/M03 A2989 RMK A01 T00941030  RH  042%=      5-min Rain = 0
KVP1 140116Z 06006KT 09/M03 A2989 RMK A01 T00931029  RH  042%=      5-min Rain = 0
KVP1 140117Z 06006KT 09/M03 A2989 RMK A01 T00911031  RH  042%=      5-min Rain = 0
KVP1 140118Z 06006KT 09/M03 A299 RMK A01 T00901031  RH  043%=      5-min Rain = 0
KVP1 140119Z 07007KT 09/M03 A299 RMK A01 T00891031  RH  043%=      5-min Rain = 0
KVP1 140120Z 07007KT 09/M03 A299 RMK A01 T00881031  RH  043%=      5-min Rain = 0
KVP1 140121Z 08007KT 09/M03 A299 RMK A01 T00881031  RH  043%=      5-min Rain = 0
KVP1 140122Z 08006KT 09/M03 A299 RMK A01 T00891031  RH  043%=      5-min Rain = 0
KVP1 140123Z 08006KT 09/M03 A299 RMK A01 T00881031  RH  043%=      5-min Rain = 0
KVP1 140124Z 07006KT 09/M03 A299 RMK A01 T00881031  RH  043%=      5-min Rain = 0
KVP1 140125Z 07006KT 09/M03 A299 RMK A01 T00891031  RH  043%=      5-min Rain = 0
KVP1 140126Z 07005KT 09/M03 A299 RMK A01 T00891031  RH  042%=      5-min Rain = 0
KVP1 140127Z 07006KT 09/M03 A299 RMK A01 T00911031  RH  042%=      5-min Rain = 0
KVP1 140128Z 06006KT 09/M03 A2991 RMK A01 T00921031  RH  042%=      5-min Rain = 0
KVP1 140129Z 06005KT 09/M03 A2991 RMK A01 T00921031  RH  042%=      5-min Rain = 0
KVP1 140130Z 06005KT 09/M03 A2991 RMK A01 T00941030  RH  041%=      5-min Rain = 0
KVP1 140131Z 06004KT 10/M03 A2991 RMK A01 T00961030  RH  041%=      5-min Rain = 0
KVP1 140132Z 05004KT 10/M03 A2991 RMK A01 T00971030  RH  041%=      5-min Rain = 0
KVP1 140133Z 05004KT 10/M03 A2991 RMK A01 T00981030  RH  041%=      5-min Rain = 0
KVP1 140134Z 05004KT 10/M03 A2991 RMK A01 T00971031  RH  040%=      5-min Rain = 0
KVP1 140135Z 05004KT 10/M03 A2991 RMK A01 T00971031  RH  040%=      5-min Rain = 0
KVP1 140136Z 06003KT 10/M03 A2991 RMK A01 T00971031  RH  040%=      5-min Rain = 0
KVP1 140137Z 07003KT 10/M03 A2991 RMK A01 T00951032  RH  041%=      5-min Rain = 0
KVP1 140138Z 08003KT 09/M03 A2991 RMK A01 T00921033  RH  041%=      5-min Rain = 0
KVP1 140139Z 08003KT 09/M03 A2991 RMK A01 T00921031  RH  042%=      5-min Rain = 0
KVP1 140140Z 08003KT 10/M03 A2991 RMK A01 T00951030  RH  041%=      5-min Rain = 0
KVP1 140141Z 07003KT 10/M03 A2991 RMK A01 T00971030  RH  041%=      5-min Rain = 0
KVP1 140142Z 08003KT 10/M03 A2991 RMK A01 T00981031  RH  040%=      5-min Rain = 0
KVP1 140143Z 08004KT 10/M03 A2991 RMK A01 T00981031  RH  040%=      5-min Rain = 0
KVP1 140144Z 08004KT 10/M03 A2991 RMK A01 T00981031  RH  040%=      5-min Rain = 0
KVP1 140145Z 07004KT 10/M03 A2991 RMK A01 T00981031  RH  040%=      5-min Rain = 0
KVP1 140146Z 07004KT 10/M03 A2991 RMK A01 T00971032  RH  040%=      5-min Rain = 0
KVP1 140147Z 07004KT 10/M03 A2991 RMK A01 T00961031  RH  041%=      5-min Rain = 0
KVP1 140148Z 07004KT 10/M03 A2991 RMK A01 T00951032  RH  041%=      5-min Rain = 0
KVP1 140149Z 08003KT 10/M03 A2991 RMK A01 T00951032  RH  041%=      5-min Rain = 0
KVP1 140150Z 08003KT 10/M03 A2991 RMK A01 T00951032  RH  041%=      5-min Rain = 0
KVP1 140151Z 09002KT 10/M03 A2991 RMK A01 T00951032  RH  041%=      5-min Rain = 0
KVP1 140152Z 09002KT 09/M03 A2992 RMK A01 T00931032  RH  041%=      5-min Rain = 0
KVP1 140153Z 09001KT 09/M03 A2992 RMK A01 T00921032  RH  042%=      5-min Rain = 0
KVP1 140154Z 09001KT 09/M03 A2992 RMK A01 T00891033  RH  042%=      5-min Rain = 0
KVP1 140155Z 09002KT 09/M03 A2992 RMK A01 T00871032  RH  043%=      5-min Rain = 0
KVP1 140156Z 10003KT 09/M03 A2992 RMK A01 T00861032  RH  043%=      5-min Rain = 0
KVP1 140157Z 10003KT 09/M03 A2991 RMK A01 T00871032  RH  043%=      5-min Rain = 0
KVP1 140158Z 10004KT 09/M03 A2991 RMK A01 T00871032  RH  043%=      5-min Rain = 0
KVP1 140159Z 10005KT 09/M03 A2991 RMK A01 T00891031  RH  043%=      5-min Rain = 0
KVP1 140200Z 10005KT 09/M03 A2991 RMK A01 T00921031  RH  042%=      5-min Rain = 0
KVP1 140201Z 10005KT 10/M03 A2991 RMK A01 T00951031  RH  041%=      5-min Rain = 0
KVP1 140202Z 10005KT 10/M03 A2991 RMK A01 T00971032  RH  040%=      5-min Rain = 0
KVP1 140203Z 10005KT 10/M03 A2991 RMK A01 T00991032  RH  040%=      5-min Rain = 0
KVP1 140204Z 10004KT 10/M03 A2991 RMK A01 T00991033  RH  039%=      5-min Rain = 0
KVP1 140205Z 10004KT 10/M03 A2991 RMK A01 T00991033  RH  039%=      5-min Rain = 0
KVP1 140206Z 11003KT 10/M03 A2991 RMK A01 T00991033  RH  039%=      5-min Rain = 0
KVP1 140207Z 11003KT 10/M03 A2991 RMK A01 T00991032  RH  040%=      5-min Rain = 0
KVP1 140208Z 11003KT 10/M03 A2991 RMK A01 T00971033  RH  040%=      5-min Rain = 0
KVP1 140209Z 12003KT 10/M03 A2991 RMK A01 T00951033  RH  040%=      5-min Rain = 0
KVP1 140210Z 12004KT 09/M03 A2991 RMK A01 T00931033  RH  041%=      5-min Rain = 0
KVP1 140211Z 12005KT 09/M03 A2991 RMK A01 T00911033  RH  042%=      5-min Rain = 0
KVP1 140212Z 12005KT 09/M03 A2991 RMK A01 T00871034  RH  042%=      5-min Rain = 0
KVP1 140213Z 12005KT 09/M03 A2991 RMK A01 T00861034  RH  043%=      5-min Rain = 0
KVP1 140214Z 12005KT 09/M03 A2991 RMK A01 T00861033  RH  043%=      5-min Rain = 0
KVP1 140215Z 12004KT 09/M03 A2991 RMK A01 T00851033  RH  043%=      5-min Rain = 0
KVP1 140216Z 12004KT 08/M03 A2991 RMK A01 T00841033  RH  043%=      5-min Rain = 0
KVP1 140217Z 12003KT 08/M03 A2991 RMK A01 T00831032  RH  044%=      5-min Rain = 0
KVP1 140218Z 12003KT 08/M03 A2991 RMK A01 T00791033  RH  045%=      5-min Rain = 0
KVP1 140219Z 12003KT 08/M03 A2991 RMK A01 T00761033  RH  046%=      5-min Rain = 0
KVP1 140220Z 12003KT 07/M03 A2991 RMK A01 T00741034  RH  046%=      5-min Rain = 0
KVP1 140221Z 12003KT 07/M03 A2991 RMK A01 T00741034  RH  046%=      5-min Rain = 0
KVP1 140222Z 12004KT 08/M03 A2991 RMK A01 T00751033  RH  046%=      5-min Rain = 0
KVP1 140223Z 13005KT 07/M03 A2991 RMK A01 T00741033  RH  047%=      5-min Rain = 0
KVP1 140224Z 13005KT 08/M03 A2991 RMK A01 T00751033  RH  046%=      5-min Rain = 0
KVP1 140225Z 13005KT 08/M03 A2991 RMK A01 T00751033  RH  046%=      5-min Rain = 0
KVP1 140226Z 14005KT 08/M03 A2991 RMK A01 T00761032  RH  046%=      5-min Rain = 0
KVP1 140227Z 14005KT 07/M03 A2991 RMK A01 T00721032  RH  047%=      5-min Rain = 0
KVP1 140228Z 14006KT 07/M03 A2991 RMK A01 T00691032  RH  048%=      5-min Rain = 0
KVP1 140229Z 14006KT 07/M03 A2991 RMK A01 T00701032  RH  048%=      5-min Rain = 0
KVP1 140230Z 14006KT 07/M03 A299 RMK A01 T00701031  RH  049%=      5-min Rain = 0
KVP1 140231Z 14006KT 07/M03 A299 RMK A01 T00681030  RH  050%=      5-min Rain = 0
KVP1 140232Z 13005KT 07/M03 A2991 RMK A01 T00661029  RH  051%=      5-min Rain = 0
KVP1 140233Z 13004KT 07/M03 A2991 RMK A01 T00651029  RH  051%=      5-min Rain = 0
KVP1 140234Z 14002KT 06/M03 A2992 RMK A01 T00641028  RH  052%=      5-min Rain = 0
KVP1 140235Z 14000KT 06/M03 A2992 RMK A01 T00611028  RH  053%=      5-min Rain = 0
KVP1 140236Z 02000KT 06/M03 A2992 RMK A01 T00621028  RH  053%=      5-min Rain = 0
KVP1 140237Z 05001KT 07/M03 A2992 RMK A01 T00671027  RH  051%=      5-min Rain = 0
KVP1 140238Z 05002KT 07/M03 A2992 RMK A01 T00721026  RH  050%=      5-min Rain = 0
KVP1 140239Z 07002KT 08/M03 A2992 RMK A01 T00771027  RH  048%=      5-min Rain = 0
KVP1 140240Z 10002KT 08/M03 A2992 RMK A01 T00801027  RH  047%=      5-min Rain = 0
KVP1 140241Z 12003KT 08/M03 A2992 RMK A01 T00801027  RH  047%=      5-min Rain = 0
KVP1 140242Z 13004KT 08/M03 A2992 RMK A01 T00791026  RH  047%=      5-min Rain = 0
KVP1 140243Z 14004KT 08/M03 A2992 RMK A01 T00771027  RH  048%=      5-min Rain = 0
KVP1 140244Z 14005KT 08/M03 A2991 RMK A01 T00781028  RH  047%=      5-min Rain = 0
KVP1 140245Z 15004KT 08/M03 A2991 RMK A01 T00781028  RH  047%=      5-min Rain = 0
KVP1 140246Z 17003KT 07/M03 A2991 RMK A01 T00681029  RH  050%=      5-min Rain = 0
KVP1 140247Z 17003KT 06/M03 A2991 RMK A01 T00601030  RH  052%=      5-min Rain = 0
KVP1 140248Z 16003KT 06/M03 A2991 RMK A01 T00561030  RH  054%=      5-min Rain = 0
KVP1 140249Z 15003KT 06/M03 A2991 RMK A01 T00561031  RH  054%=      5-min Rain = 0
KVP1 140250Z 13002KT 06/M03 A299 RMK A01 T00571030  RH  053%=      5-min Rain = 0
KVP1 140251Z 13002KT 06/M03 A2991 RMK A01 T00571030  RH  053%=      5-min Rain = 0
KVP1 140252Z 12002KT 06/M03 A2991 RMK A01 T00581030  RH  053%=      5-min Rain = 0
KVP1 140253Z 11001KT 06/M03 A2991 RMK A01 T00591030  RH  053%=      5-min Rain = 0
KVP1 140254Z 08001KT 06/M03 A2992 RMK A01 T00591030  RH  053%=      5-min Rain = 0
KVP1 140255Z 02001KT 06/M03 A2992 RMK A01 T00631030  RH  051%=      5-min Rain = 0
KVP1 140256Z 01002KT 07/M03 A2992 RMK A01 T00691029  RH  050%=      5-min Rain = 0
KVP1 140257Z 01002KT 07/M03 A2992 RMK A01 T00721029  RH  049%=      5-min Rain = 0
KVP1 140258Z 02003KT 07/M03 A2992 RMK A01 T00711029  RH  049%=      5-min Rain = 0
KVP1 140259Z 03004KT 07/M03 A2993 RMK A01 T00651029  RH  051%=      5-min Rain = 0
KVP1 140300Z 03004KT 06/M03 A2993 RMK A01 T00591028  RH  054%=      5-min Rain = 0
KVP1 140301Z 04004KT 06/M03 A2993 RMK A01 T00571028  RH  055%=      5-min Rain = 0
KVP1 140302Z 06004KT 06/M03 A2993 RMK A01 T00571026  RH  055%=      5-min Rain = 0
KVP1 140303Z 06004KT 06/M03 A2993 RMK A01 T00571025  RH  055%=      5-min Rain = 0
KVP1 140304Z 06005KT 06/M02 A2993 RMK A01 T00581024  RH  056%=      5-min Rain = 0
KVP1 140305Z 05005KT 06/M02 A2993 RMK A01 T00571024  RH  056%=      5-min Rain = 0
KVP1 140306Z 03005KT 06/M02 A2994 RMK A01 T00551024  RH  056%=      5-min Rain = 0
KVP1 140307Z 04005KT 06/M03 A2994 RMK A01 T00581026  RH  055%=      5-min Rain = 0
KVP1 140308Z 04005KT 06/M03 A2994 RMK A01 T00611027  RH  053%=      5-min Rain = 0
KVP1 140309Z 04006KT 06/M03 A2994 RMK A01 T00621028  RH  052%=      5-min Rain = 0
KVP1 140310Z 03005KT 06/M03 A2995 RMK A01 T00631029  RH  052%=      5-min Rain = 0
KVP1 140311Z 02004KT 06/M03 A2994 RMK A01 T00641029  RH  051%=      5-min Rain = 0
KVP1 140312Z 02004KT 06/M03 A2994 RMK A01 T00621029  RH  052%=      5-min Rain = 0
KVP1 140313Z 01004KT 06/M03 A2994 RMK A01 T00571030  RH  053%=      5-min Rain = 0
KVP1 140314Z 01005KT 05/M03 A2994 RMK A01 T00521031  RH  055%=      5-min Rain = 0
KVP1 140315Z 00005KT 05/M03 A2995 RMK A01 T00491031  RH  056%=      5-min Rain = 0
KVP1 140316Z 36007KT 05/M03 A2995 RMK A01 T00461031  RH  058%=      5-min Rain = 0
KVP1 140317Z 01006KT 04/M03 A2995 RMK A01 T00441030  RH  059%=      5-min Rain = 0
KVP1 140318Z 02006KT 05/M03 A2995 RMK A01 T00461029  RH  058%=      5-min Rain = 0
KVP1 140319Z 02006KT 05/M03 A2995 RMK A01 T00481028  RH  058%=      5-min Rain = 0
KVP1 140320Z 01006KT 05/M03 A2995 RMK A01 T00501029  RH  057%=      5-min Rain = 0
KVP1 140321Z 00007KT 05/M03 A2995 RMK A01 T00511030  RH  056%=      5-min Rain = 0
KVP1 140322Z 36009KT 05/M03 A2995 RMK A01 T00521030  RH  055%=      5-min Rain = 0
KVP1 140323Z 01008KT 05/M03 A2994 RMK A01 T00521030  RH  055%=      5-min Rain = 0
KVP1 140324Z 02008KT 05/M03 A2994 RMK A01 T00511031  RH  055%=      5-min Rain = 0
KVP1 140325Z 03007KT 05/M03 A2994 RMK A01 T00531031  RH  055%=      5-min Rain = 0
KVP1 140326Z 03006KT 06/M03 A2993 RMK A01 T00551031  RH  054%=      5-min Rain = 0
KVP1 140327Z 04006KT 05/M03 A2993 RMK A01 T00521034  RH  054%=      5-min Rain = 0
KVP1 140328Z 04006KT 05/M04 A2993 RMK A01 T00491035  RH  055%=      5-min Rain = 0
KVP1 140329Z 03006KT 05/M04 A2994 RMK A01 T00481035  RH  055%=      5-min Rain = 0
KVP1 140330Z 01006KT 05/M03 A2994 RMK A01 T00491034  RH  055%=      5-min Rain = 0
KVP1 140331Z 01006KT 05/M03 A2995 RMK A01 T00511033  RH  054%=      5-min Rain = 0
KVP1 140332Z 36006KT 06/M03 A2995 RMK A01 T00551032  RH  053%=      5-min Rain = 0
KVP1 140333Z 00006KT 06/M03 A2995 RMK A01 T00581031  RH  052%=      5-min Rain = 0
KVP1 140334Z 00005KT 06/M03 A2995 RMK A01 T00601032  RH  052%=      5-min Rain = 0
KVP1 140335Z 01004KT 06/M03 A2995 RMK A01 T00591033  RH  052%=      5-min Rain = 0
KVP1 140336Z 01004KT 06/M04 A2995 RMK A01 T00551035  RH  052%=      5-min Rain = 0
KVP1 140337Z 00004KT 05/M04 A2995 RMK A01 T00491037  RH  054%=      5-min Rain = 0
KVP1 140338Z 36004KT 04/M04 A2995 RMK A01 T00431038  RH  056%=      5-min Rain = 0
KVP1 140339Z 35005KT 04/M04 A2995 RMK A01 T00411036  RH  057%=      5-min Rain = 0
KVP1 140340Z 34006KT 04/M04 A2995 RMK A01 T00401035  RH  058%=      5-min Rain = 0
KVP1 140341Z 34005KT 04/M04 A2995 RMK A01 T00381035  RH  059%=      5-min Rain = 0
KVP1 140342Z 33005KT 04/M03 A2995 RMK A01 T00351033  RH  061%=      5-min Rain = 0
KVP1 140343Z 33004KT 03/M03 A2995 RMK A01 T00331032  RH  062%=      5-min Rain = 0
KVP1 140344Z 33004KT 03/M03 A2995 RMK A01 T00311033  RH  063%=      5-min Rain = 0
KVP1 140345Z 33004KT 03/M04 A2995 RMK A01 T00281035  RH  063%=      5-min Rain = 0
KVP1 140346Z 33004KT 03/M04 A2995 RMK A01 T00251035  RH  064%=      5-min Rain = 0
KVP1 140347Z 33004KT 03/M03 A2995 RMK A01 T00251033  RH  065%=      5-min Rain = 0
KVP1 140348Z 32004KT 03/M03 A2995 RMK A01 T00251034  RH  065%=      5-min Rain = 0
KVP1 140349Z 34003KT 02/M03 A2995 RMK A01 T00241034  RH  065%=      5-min Rain = 0
KVP1 140350Z 35003KT 02/M03 A2995 RMK A01 T00241034  RH  066%=      5-min Rain = 0
KVP1 140351Z 34003KT 02/M03 A2995 RMK A01 T00231034  RH  066%=      5-min Rain = 0
KVP1 140352Z 34003KT 02/M04 A2996 RMK A01 T00221035  RH  066%=      5-min Rain = 0
KVP1 140353Z 34003KT 02/M04 A2996 RMK A01 T00201035  RH  067%=      5-min Rain = 0
KVP1 140354Z 34003KT 02/M04 A2996 RMK A01 T00181035  RH  068%=      5-min Rain = 0
KVP1 140355Z 34003KT 02/M04 A2995 RMK A01 T00171035  RH  068%=      5-min Rain = 0
KVP1 140356Z 00003KT 02/M04 A2995 RMK A01 T00171035  RH  068%=      5-min Rain = 0
KVP1 140357Z 00003KT 02/M04 A2995 RMK A01 T00171035  RH  069%=      5-min Rain = 0
KVP1 140358Z 00003KT 02/M04 A2995 RMK A01 T00171035  RH  069%=      5-min Rain = 0
KVP1 140359Z 00003KT 02/M03 A2995 RMK A01 T00171034  RH  069%=      5-min Rain = 0
KVP1 140400Z 34005KT 02/M03 A2995 RMK A01 T00181033  RH  069%=      5-min Rain = 0
KVP1 140401Z 35004KT 02/M03 A2995 RMK A01 T00221030  RH  069%=      5-min Rain = 0
KVP1 140402Z 00004KT 03/M03 A2995 RMK A01 T00281028  RH  067%=      5-min Rain = 0
KVP1 140403Z 00004KT 03/M03 A2995 RMK A01 T00331028  RH  064%=      5-min Rain = 0
KVP1 140404Z 36004KT 04/M03 A2995 RMK A01 T00361028  RH  063%=      5-min Rain = 0
KVP1 140405Z 35004KT 04/M03 A2995 RMK A01 T00371029  RH  062%=      5-min Rain = 0
KVP1 140406Z 00004KT 04/M03 A2995 RMK A01 T00391028  RH  061%=      5-min Rain = 0
KVP1 140407Z 01004KT 04/M03 A2995 RMK A01 T00421028  RH  060%=      5-min Rain = 0
KVP1 140408Z 01003KT 05/M03 A2995 RMK A01 T00451029  RH  059%=      5-min Rain = 0
KVP1 140409Z 01003KT 05/M03 A2995 RMK A01 T00461029  RH  058%=      5-min Rain = 0
KVP1 140410Z 36003KT 05/M03 A2995 RMK A01 T00461030  RH  058%=      5-min Rain = 0
KVP1 140411Z 35003KT 05/M03 A2995 RMK A01 T00461030  RH  058%=      5-min Rain = 0
KVP1 140412Z 34003KT 04/M03 A2995 RMK A01 T00441030  RH  058%=      5-min Rain = 0
KVP1 140413Z 34004KT 04/M03 A2995 RMK A01 T00431030  RH  059%=      5-min Rain = 0
KVP1 140414Z 34004KT 04/M03 A2995 RMK A01 T00431030  RH  059%=      5-min Rain = 0
KVP1 140415Z 33004KT 04/M03 A2995 RMK A01 T00441031  RH  058%=      5-min Rain = 0
KVP1 140416Z 33004KT 04/M03 A2995 RMK A01 T00441031  RH  058%=      5-min Rain = 0
KVP1 140417Z 34004KT 04/M03 A2995 RMK A01 T00441031  RH  058%=      5-min Rain = 0
KVP1 140418Z 35003KT 04/M03 A2995 RMK A01 T00441030  RH  059%=      5-min Rain = 0
KVP1 140419Z 00002KT 04/M03 A2995 RMK A01 T00431030  RH  059%=      5-min Rain = 0
KVP1 140420Z 01002KT 04/M03 A2995 RMK A01 T00431030  RH  059%=      5-min Rain = 0
KVP1 140421Z 01002KT 04/M03 A2995 RMK A01 T00421030  RH  059%=      5-min Rain = 0
KVP1 140422Z 36003KT 04/M03 A2995 RMK A01 T00421030  RH  060%=      5-min Rain = 0
KVP1 140423Z 35003KT 04/M03 A2995 RMK A01 T00411029  RH  060%=      5-min Rain = 0
KVP1 140424Z 34003KT 04/M03 A2994 RMK A01 T00421029  RH  060%=      5-min Rain = 0
KVP1 140425Z 35003KT 04/M03 A2994 RMK A01 T00431028  RH  060%=      5-min Rain = 0
KVP1 140426Z 35003KT 04/M03 A2994 RMK A01 T00441028  RH  059%=      5-min Rain = 0
KVP1 140427Z 36003KT 05/M03 A2994 RMK A01 T00451029  RH  059%=      5-min Rain = 0
KVP1 140428Z 00003KT 05/M03 A2995 RMK A01 T00451029  RH  059%=      5-min Rain = 0
KVP1 140429Z 00004KT 05/M03 A2995 RMK A01 T00451029  RH  059%=      5-min Rain = 0
KVP1 140430Z 01004KT 04/M03 A2995 RMK A01 T00441030  RH  059%=      5-min Rain = 0
KVP1 140431Z 01004KT 04/M03 A2995 RMK A01 T00431031  RH  059%=      5-min Rain = 0
KVP1 140432Z 02004KT 05/M03 A2995 RMK A01 T00451030  RH  059%=      5-min Rain = 0
KVP1 140433Z 02004KT 05/M03 A2995 RMK A01 T00471029  RH  058%=      5-min Rain = 0
KVP1 140434Z 01004KT 05/M03 A2995 RMK A01 T00481030  RH  057%=      5-min Rain = 0
KVP1 140435Z 00004KT 05/M03 A2995 RMK A01 T00461030  RH  058%=      5-min Rain = 0
KVP1 140436Z 00004KT 05/M03 A2995 RMK A01 T00451029  RH  058%=      5-min Rain = 0
KVP1 140437Z 00004KT 05/M03 A2995 RMK A01 T00451029  RH  058%=      5-min Rain = 0
KVP1 140438Z 00005KT 05/M03 A2995 RMK A01 T00461029  RH  058%=      5-min Rain = 0
KVP1 140439Z 01005KT 05/M03 A2995 RMK A01 T00481029  RH  057%=      5-min Rain = 0
KVP1 140440Z 01005KT 05/M03 A2995 RMK A01 T00501030  RH  057%=      5-min Rain = 0
KVP1 140441Z 02005KT 05/M03 A2995 RMK A01 T00511030  RH  056%=      5-min Rain = 0
KVP1 140442Z 01005KT 05/M03 A2995 RMK A01 T00511031  RH  056%=      5-min Rain = 0
KVP1 140443Z 36005KT 05/M03 A2995 RMK A01 T00491031  RH  056%=      5-min Rain = 0
KVP1 140444Z 35005KT 05/M03 A2995 RMK A01 T00471031  RH  057%=      5-min Rain = 0
KVP1 140445Z 36006KT 05/M03 A2995 RMK A01 T00451031  RH  058%=      5-min Rain = 0
KVP1 140446Z 00006KT 04/M03 A2995 RMK A01 T00431031  RH  058%=      5-min Rain = 0
KVP1 140447Z 01005KT 04/M03 A2995 RMK A01 T00431031  RH  059%=      5-min Rain = 0
KVP1 140448Z 01005KT 04/M03 A2995 RMK A01 T00431032  RH  058%=      5-min Rain = 0
KVP1 140449Z 01004KT 04/M03 A2994 RMK A01 T00421032  RH  059%=      5-min Rain = 0
KVP1 140450Z 35005KT 04/M03 A2994 RMK A01 T00411032  RH  059%=      5-min Rain = 0
KVP1 140451Z 36005KT 04/M03 A2994 RMK A01 T00411031  RH  059%=      5-min Rain = 0
KVP1 140452Z 00005KT 04/M03 A2994 RMK A01 T00431031  RH  059%=      5-min Rain = 0
KVP1 140453Z 00004KT 04/M03 A2994 RMK A01 T00411032  RH  059%=      5-min Rain = 0
KVP1 140454Z 01004KT 04/M03 A2994 RMK A01 T00401032  RH  059%=      5-min Rain = 0
KVP1 140455Z 01004KT 04/M03 A2994 RMK A01 T00391032  RH  060%=      5-min Rain = 0
KVP1 140456Z 01004KT 04/M03 A2994 RMK A01 T00381032  RH  060%=      5-min Rain = 0
KVP1 140457Z 02004KT 04/M03 A2994 RMK A01 T00371033  RH  060%=      5-min Rain = 0
KVP1 140458Z 02004KT 04/M03 A2994 RMK A01 T00361032  RH  061%=      5-min Rain = 0
KVP1 140459Z 01005KT 04/M03 A2994 RMK A01 T00371032  RH  061%=      5-min Rain = 0
KVP1 140500Z 00005KT 04/M03 A2994 RMK A01 T00371032  RH  061%=      5-min Rain = 0
KVP1 140501Z 01006KT 04/M03 A2994 RMK A01 T00401030  RH  060%=      5-min Rain = 0
KVP1 140502Z 01006KT 04/M03 A2995 RMK A01 T00431030  RH  059%=      5-min Rain = 0
KVP1 140503Z 01006KT 04/M03 A2995 RMK A01 T00441031  RH  058%=      5-min Rain = 0
KVP1 140504Z 01006KT 04/M03 A2995 RMK A01 T00441031  RH  058%=      5-min Rain = 0
KVP1 140505Z 01005KT 04/M03 A2995 RMK A01 T00441031  RH  058%=      5-min Rain = 0
KVP1 140506Z 02005KT 04/M03 A2995 RMK A01 T00441031  RH  058%=      5-min Rain = 0
KVP1 140507Z 01005KT 05/M03 A2995 RMK A01 T00451030  RH  058%=      5-min Rain = 0
KVP1 140508Z 01005KT 05/M03 A2995 RMK A01 T00451030  RH  058%=      5-min Rain = 0
KVP1 140509Z 00005KT 05/M03 A2995 RMK A01 T00461030  RH  058%=      5-min Rain = 0
KVP1 140510Z 00005KT 05/M03 A2996 RMK A01 T00461029  RH  058%=      5-min Rain = 0
KVP1 140511Z 01006KT 05/M03 A2996 RMK A01 T00471029  RH  058%=      5-min Rain = 0
KVP1 140512Z 01006KT 05/M03 A2996 RMK A01 T00471029  RH  058%=      5-min Rain = 0
KVP1 140513Z 01006KT 05/M03 A2996 RMK A01 T00481029  RH  058%=      5-min Rain = 0
KVP1 140514Z 01006KT 05/M03 A2996 RMK A01 T00501028  RH  057%=      5-min Rain = 0
KVP1 140515Z 01006KT 05/M03 A2996 RMK A01 T00511028  RH  057%=      5-min Rain = 0
KVP1 140516Z 01006KT 05/M03 A2996 RMK A01 T00531028  RH  056%=      5-min Rain = 0
KVP1 140517Z 01006KT 05/M03 A2996 RMK A01 T00541028  RH  056%=      5-min Rain = 0
KVP1 140518Z 01006KT 06/M03 A2996 RMK A01 T00561028  RH  055%=      5-min Rain = 0
KVP1 140519Z 02006KT 06/M03 A2996 RMK A01 T00581028  RH  054%=      5-min Rain = 0
KVP1 140520Z 02006KT 06/M03 A2996 RMK A01 T00581028  RH  054%=      5-min Rain = 0
KVP1 140521Z 02006KT 06/M03 A2996 RMK A01 T00591029  RH  053%=      5-min Rain = 0
KVP1 140522Z 02006KT 06/M03 A2995 RMK A01 T00601028  RH  053%=      5-min Rain = 0
KVP1 140523Z 02007KT 06/M03 A2995 RMK A01 T00611028  RH  053%=      5-min Rain = 0
KVP1 140524Z 02007KT 06/M03 A2995 RMK A01 T00621029  RH  052%=      5-min Rain = 0
KVP1 140525Z 02006KT 06/M03 A2995 RMK A01 T00631029  RH  052%=      5-min Rain = 0
KVP1 140526Z 02006KT 06/M03 A2995 RMK A01 T00641030  RH  051%=      5-min Rain = 0
KVP1 140527Z 02006KT 06/M03 A2995 RMK A01 T00641031  RH  051%=      5-min Rain = 0
KVP1 140528Z 02006KT 06/M03 A2995 RMK A01 T00641031  RH  051%=      5-min Rain = 0
KVP1 140529Z 02007KT 06/M03 A2995 RMK A01 T00631031  RH  051%=      5-min Rain = 0
KVP1 140530Z 02007KT 06/M03 A2995 RMK A01 T00621031  RH  051%=      5-min Rain = 0
KVP1 140531Z 02007KT 06/M03 A2995 RMK A01 T00611031  RH  052%=      5-min Rain = 0
KVP1 140532Z 03007KT 06/M03 A2995 RMK A01 T00601031  RH  052%=      5-min Rain = 0
KVP1 140533Z 03007KT 06/M03 A2994 RMK A01 T00581032  RH  053%=      5-min Rain = 0
KVP1 140534Z 02007KT 05/M03 A2994 RMK A01 T00531033  RH  054%=      5-min Rain = 0
KVP1 140535Z 02008KT 05/M03 A2995 RMK A01 T00491033  RH  055%=      5-min Rain = 0
KVP1 140536Z 02007KT 05/M03 A2995 RMK A01 T00481032  RH  056%=      5-min Rain = 0
KVP1 140537Z 02008KT 05/M03 A2995 RMK A01 T00481030  RH  057%=      5-min Rain = 0
KVP1 140538Z 03008KT 05/M03 A2995 RMK A01 T00471031  RH  057%=      5-min Rain = 0
KVP1 140539Z 03007KT 05/M03 A2994 RMK A01 T00461031  RH  057%=      5-min Rain = 0
KVP1 140540Z 03007KT 04/M03 A2994 RMK A01 T00441031  RH  058%=      5-min Rain = 0
KVP1 140541Z 03008KT 04/M03 A2994 RMK A01 T00431030  RH  059%=      5-min Rain = 0
KVP1 140542Z 03008KT 04/M03 A2994 RMK A01 T00431030  RH  059%=      5-min Rain = 0
KVP1 140543Z 03008KT 05/M03 A2994 RMK A01 T00451029  RH  059%=      5-min Rain = 0
KVP1 140544Z 03008KT 05/M03 A2994 RMK A01 T00461029  RH  058%=      5-min Rain = 0
KVP1 140545Z 03008KT 05/M03 A2994 RMK A01 T00481029  RH  057%=      5-min Rain = 0
KVP1 140546Z 03009KT 05/M03 A2994 RMK A01 T00501029  RH  057%=      5-min Rain = 0
KVP1 140547Z 03009KT 05/M03 A2994 RMK A01 T00501029  RH  056%=      5-min Rain = 0
KVP1 140548Z 03008KT 05/M03 A2994 RMK A01 T00491029  RH  057%=      5-min Rain = 0
KVP1 140549Z 03009KT 05/M03 A2994 RMK A01 T00481029  RH  057%=      5-min Rain = 0
KVP1 140550Z 02009KT 05/M03 A2994 RMK A01 T00491029  RH  057%=      5-min Rain = 0
KVP1 140551Z 02009KT 05/M03 A2994 RMK A01 T00501029  RH  057%=      5-min Rain = 0
KVP1 140552Z 02009KT 05/M03 A2994 RMK A01 T00511029  RH  056%=      5-min Rain = 0
KVP1 140553Z 03009KT 05/M03 A2994 RMK A01 T00521029  RH  056%=      5-min Rain = 0
KVP1 140554Z 03009KT 05/M03 A2994 RMK A01 T00531028  RH  056%=      5-min Rain = 0
KVP1 140555Z 03009KT 05/M03 A2994 RMK A01 T00521029  RH  056%=      5-min Rain = 0
KVP1 140556Z 03009KT 05/M03 A2994 RMK A01 T00511029  RH  056%=      5-min Rain = 0
KVP1 140557Z 03009KT 05/M03 A2994 RMK A01 T00501028  RH  057%=      5-min Rain = 0
KVP1 140558Z 03008KT 05/M03 A2994 RMK A01 T00501028  RH  057%=      5-min Rain = 0
KVP1 140559Z 02008KT 05/M03 A2994 RMK A01 T00511028  RH  057%=      5-min Rain = 0

Page generated in 0.0957 seconds.